<?xml version="1.0" encoding="UTF-8" standalone="no" ?>
<gpx xmlns="http://www.topografix.com/GPX/1/1" xmlns:xsi="http://www.w3.org/2001/XMLSchema-instance" xsi:schemaLocation="http://www.topografix.com/GPX/1/1 http://www.topografix.com/GPX/1/1/gpx.xsd" version="1.1" creator="VisuGPX - https://www.visugpx.com">
  <metadata>
    <name>46 - Porte-du-Quercy : le Boulvé</name>
    <desc><![CDATA[Cet itinéraire fait partie de la collection de EquiLiberté : www.equiliberte.org Circuit NON ACCESSIBLE aux attelages
Départ au gîte Coeur de Village https://gitecoeurdevillage.wixsite.com/porteduquercy]]></desc>
  </metadata>
  <wpt lat="44.42028" lon="1.14492">
    <ele>147.5</ele>
    <name><![CDATA[46800 Coeur de Village]]></name>
    <desc><![CDATA[ Le Bourg - Le Boulvé
46800 Porte du Quercy
06.37.96.14.10​
gitecoeurdevillage@hotmail.com
https://gitecoeurdevillage.wixsite.com/porteduquercy]]></desc>
    <type><![CDATA[hotel]]></type>
  </wpt>
  <trk>
    <name><![CDATA[46 - Porte-du-Quercy : le Boulvé sud-est :  petit parcours]]></name>
    <extensions>
      <line xmlns="http://www.topografix.com/GPX/gpx_style/0/2">
        <color>0000FF</color>
        <opacity>0.9</opacity>
        <width>5</width>
      </line>
    </extensions>
    <trkseg>
      <trkpt lat="44.41939" lon="1.14421">
        <ele>150</ele>
        <time>2021-06-01T13:48:14Z</time>
      </trkpt>
      <trkpt lat="44.41928" lon="1.14442">
        <ele>150</ele>
        <time>2021-06-01T13:48:29Z</time>
      </trkpt>
      <trkpt lat="44.41933" lon="1.14659">
        <ele>151</ele>
        <time>2021-06-01T13:50:33Z</time>
      </trkpt>
      <trkpt lat="44.41958" lon="1.14669">
        <ele>152</ele>
        <time>2021-06-01T13:50:54Z</time>
      </trkpt>
      <trkpt lat="44.41982" lon="1.14669">
        <ele>152</ele>
        <time>2021-06-01T13:51:13Z</time>
      </trkpt>
      <trkpt lat="44.41987" lon="1.14724">
        <ele>153</ele>
        <time>2021-06-01T13:51:45Z</time>
      </trkpt>
      <trkpt lat="44.41968" lon="1.14796">
        <ele>154</ele>
        <time>2021-06-01T13:52:29Z</time>
      </trkpt>
      <trkpt lat="44.41935" lon="1.15011">
        <ele>154</ele>
        <time>2021-06-01T13:54:34Z</time>
      </trkpt>
      <trkpt lat="44.41883" lon="1.15061">
        <ele>157</ele>
        <time>2021-06-01T13:55:25Z</time>
      </trkpt>
      <trkpt lat="44.41841" lon="1.15131">
        <ele>161</ele>
        <time>2021-06-01T13:56:17Z</time>
      </trkpt>
      <trkpt lat="44.41754" lon="1.1529">
        <ele>168</ele>
        <time>2021-06-01T13:58:12Z</time>
      </trkpt>
      <trkpt lat="44.41619" lon="1.15369">
        <ele>182</ele>
        <time>2021-06-01T14:00:09Z</time>
      </trkpt>
      <trkpt lat="44.41601" lon="1.15407">
        <ele>186</ele>
        <time>2021-06-01T14:00:35Z</time>
      </trkpt>
      <trkpt lat="44.41667" lon="1.15847">
        <ele>174</ele>
        <time>2021-06-01T14:04:52Z</time>
      </trkpt>
      <trkpt lat="44.41719" lon="1.15888">
        <ele>172</ele>
        <time>2021-06-01T14:05:40Z</time>
      </trkpt>
      <trkpt lat="44.41673" lon="1.15935">
        <ele>177</ele>
        <time>2021-06-01T14:06:26Z</time>
      </trkpt>
      <trkpt lat="44.41602" lon="1.16017">
        <ele>185</ele>
        <time>2021-06-01T14:07:39Z</time>
      </trkpt>
      <trkpt lat="44.41506" lon="1.16127">
        <ele>187</ele>
        <time>2021-06-01T14:09:19Z</time>
      </trkpt>
      <trkpt lat="44.41446" lon="1.16207">
        <ele>185</ele>
        <time>2021-06-01T14:10:25Z</time>
      </trkpt>
      <trkpt lat="44.41423" lon="1.16197">
        <ele>188</ele>
        <time>2021-06-01T14:10:44Z</time>
      </trkpt>
      <trkpt lat="44.41307" lon="1.16196">
        <ele>187</ele>
        <time>2021-06-01T14:12:17Z</time>
      </trkpt>
      <trkpt lat="44.41198" lon="1.16163">
        <ele>195</ele>
        <time>2021-06-01T14:13:46Z</time>
      </trkpt>
      <trkpt lat="44.41131" lon="1.1619">
        <ele>197</ele>
        <time>2021-06-01T14:14:42Z</time>
      </trkpt>
      <trkpt lat="44.40987" lon="1.16233">
        <ele>202</ele>
        <time>2021-06-01T14:16:40Z</time>
      </trkpt>
      <trkpt lat="44.40915" lon="1.16325">
        <ele>204</ele>
        <time>2021-06-01T14:17:58Z</time>
      </trkpt>
      <trkpt lat="44.4082" lon="1.16508">
        <ele>216</ele>
        <time>2021-06-01T14:20:08Z</time>
      </trkpt>
      <trkpt lat="44.40366" lon="1.16774">
        <ele>270</ele>
        <time>2021-06-01T14:26:42Z</time>
      </trkpt>
      <trkpt lat="44.40337" lon="1.16805">
        <ele>271</ele>
        <time>2021-06-01T14:27:11Z</time>
      </trkpt>
      <trkpt lat="44.40288" lon="1.16839">
        <ele>272</ele>
        <time>2021-06-01T14:27:55Z</time>
      </trkpt>
      <trkpt lat="44.40195" lon="1.16884">
        <ele>272</ele>
        <time>2021-06-01T14:29:13Z</time>
      </trkpt>
      <trkpt lat="44.40149" lon="1.16905">
        <ele>272</ele>
        <time>2021-06-01T14:29:52Z</time>
      </trkpt>
      <trkpt lat="44.40115" lon="1.16913">
        <ele>271</ele>
        <time>2021-06-01T14:30:20Z</time>
      </trkpt>
      <trkpt lat="44.40114" lon="1.16899">
        <ele>270</ele>
        <time>2021-06-01T14:30:28Z</time>
      </trkpt>
      <trkpt lat="44.40102" lon="1.16791">
        <ele>268</ele>
        <time>2021-06-01T14:31:30Z</time>
      </trkpt>
      <trkpt lat="44.40087" lon="1.16739">
        <ele>267</ele>
        <time>2021-06-01T14:32:02Z</time>
      </trkpt>
      <trkpt lat="44.40064" lon="1.16676">
        <ele>265</ele>
        <time>2021-06-01T14:32:43Z</time>
      </trkpt>
      <trkpt lat="44.40064" lon="1.16632">
        <ele>264</ele>
        <time>2021-06-01T14:33:08Z</time>
      </trkpt>
      <trkpt lat="44.40056" lon="1.16586">
        <ele>262</ele>
        <time>2021-06-01T14:33:35Z</time>
      </trkpt>
      <trkpt lat="44.40038" lon="1.16513">
        <ele>256</ele>
        <time>2021-06-01T14:34:19Z</time>
      </trkpt>
      <trkpt lat="44.40036" lon="1.16443">
        <ele>250</ele>
        <time>2021-06-01T14:34:59Z</time>
      </trkpt>
      <trkpt lat="44.40058" lon="1.16389">
        <ele>245</ele>
        <time>2021-06-01T14:35:35Z</time>
      </trkpt>
      <trkpt lat="44.40082" lon="1.16335">
        <ele>236</ele>
        <time>2021-06-01T14:36:11Z</time>
      </trkpt>
      <trkpt lat="44.40106" lon="1.16287">
        <ele>235</ele>
        <time>2021-06-01T14:36:45Z</time>
      </trkpt>
      <trkpt lat="44.40134" lon="1.16247">
        <ele>230</ele>
        <time>2021-06-01T14:37:17Z</time>
      </trkpt>
      <trkpt lat="44.4017" lon="1.16209">
        <ele>222</ele>
        <time>2021-06-01T14:37:53Z</time>
      </trkpt>
      <trkpt lat="44.40205" lon="1.16184">
        <ele>217</ele>
        <time>2021-06-01T14:38:24Z</time>
      </trkpt>
      <trkpt lat="44.40244" lon="1.16176">
        <ele>213</ele>
        <time>2021-06-01T14:38:56Z</time>
      </trkpt>
      <trkpt lat="44.40265" lon="1.16172">
        <ele>214</ele>
        <time>2021-06-01T14:39:13Z</time>
      </trkpt>
      <trkpt lat="44.40293" lon="1.16161">
        <ele>216</ele>
        <time>2021-06-01T14:39:36Z</time>
      </trkpt>
      <trkpt lat="44.40342" lon="1.16085">
        <ele>210</ele>
        <time>2021-06-01T14:40:35Z</time>
      </trkpt>
      <trkpt lat="44.40368" lon="1.16028">
        <ele>208</ele>
        <time>2021-06-01T14:41:13Z</time>
      </trkpt>
      <trkpt lat="44.40391" lon="1.15962">
        <ele>205</ele>
        <time>2021-06-01T14:41:55Z</time>
      </trkpt>
      <trkpt lat="44.40403" lon="1.15911">
        <ele>200</ele>
        <time>2021-06-01T14:42:26Z</time>
      </trkpt>
      <trkpt lat="44.40463" lon="1.15827">
        <ele>200</ele>
        <time>2021-06-01T14:43:34Z</time>
      </trkpt>
      <trkpt lat="44.40491" lon="1.15776">
        <ele>196</ele>
        <time>2021-06-01T14:44:11Z</time>
      </trkpt>
      <trkpt lat="44.40524" lon="1.15749">
        <ele>193</ele>
        <time>2021-06-01T14:44:42Z</time>
      </trkpt>
      <trkpt lat="44.40569" lon="1.15724">
        <ele>192</ele>
        <time>2021-06-01T14:45:20Z</time>
      </trkpt>
      <trkpt lat="44.40599" lon="1.15695">
        <ele>192</ele>
        <time>2021-06-01T14:45:49Z</time>
      </trkpt>
      <trkpt lat="44.40629" lon="1.15651">
        <ele>193</ele>
        <time>2021-06-01T14:46:24Z</time>
      </trkpt>
      <trkpt lat="44.40647" lon="1.15598">
        <ele>192</ele>
        <time>2021-06-01T14:46:58Z</time>
      </trkpt>
      <trkpt lat="44.40676" lon="1.15498">
        <ele>191</ele>
        <time>2021-06-01T14:48:00Z</time>
      </trkpt>
      <trkpt lat="44.40675" lon="1.15481">
        <ele>190</ele>
        <time>2021-06-01T14:48:09Z</time>
      </trkpt>
      <trkpt lat="44.40656" lon="1.15455">
        <ele>186</ele>
        <time>2021-06-01T14:48:31Z</time>
      </trkpt>
      <trkpt lat="44.40644" lon="1.15429">
        <ele>184</ele>
        <time>2021-06-01T14:48:48Z</time>
      </trkpt>
      <trkpt lat="44.40658" lon="1.15326">
        <ele>181</ele>
        <time>2021-06-01T14:49:48Z</time>
      </trkpt>
      <trkpt lat="44.40671" lon="1.15276">
        <ele>180</ele>
        <time>2021-06-01T14:50:19Z</time>
      </trkpt>
      <trkpt lat="44.40708" lon="1.15232">
        <ele>186</ele>
        <time>2021-06-01T14:50:58Z</time>
      </trkpt>
      <trkpt lat="44.40728" lon="1.15209">
        <ele>188</ele>
        <time>2021-06-01T14:51:18Z</time>
      </trkpt>
      <trkpt lat="44.40744" lon="1.15175">
        <ele>188</ele>
        <time>2021-06-01T14:51:42Z</time>
      </trkpt>
      <trkpt lat="44.4076" lon="1.1511">
        <ele>185</ele>
        <time>2021-06-01T14:52:21Z</time>
      </trkpt>
      <trkpt lat="44.40796" lon="1.14987">
        <ele>181</ele>
        <time>2021-06-01T14:53:37Z</time>
      </trkpt>
      <trkpt lat="44.40812" lon="1.14949">
        <ele>179</ele>
        <time>2021-06-01T14:54:02Z</time>
      </trkpt>
      <trkpt lat="44.40841" lon="1.14897">
        <ele>176</ele>
        <time>2021-06-01T14:54:40Z</time>
      </trkpt>
      <trkpt lat="44.40863" lon="1.14879">
        <ele>176</ele>
        <time>2021-06-01T14:55:00Z</time>
      </trkpt>
      <trkpt lat="44.40991" lon="1.14771">
        <ele>172</ele>
        <time>2021-06-01T14:57:00Z</time>
      </trkpt>
      <trkpt lat="44.4102" lon="1.14738">
        <ele>172</ele>
        <time>2021-06-01T14:57:30Z</time>
      </trkpt>
      <trkpt lat="44.41041" lon="1.14706">
        <ele>173</ele>
        <time>2021-06-01T14:57:55Z</time>
      </trkpt>
      <trkpt lat="44.41102" lon="1.14599">
        <ele>171</ele>
        <time>2021-06-01T14:59:13Z</time>
      </trkpt>
      <trkpt lat="44.41145" lon="1.1456">
        <ele>171</ele>
        <time>2021-06-01T14:59:54Z</time>
      </trkpt>
      <trkpt lat="44.41142" lon="1.14538">
        <ele>168</ele>
        <time>2021-06-01T15:00:07Z</time>
      </trkpt>
      <trkpt lat="44.41124" lon="1.14509">
        <ele>165</ele>
        <time>2021-06-01T15:00:29Z</time>
      </trkpt>
      <trkpt lat="44.411" lon="1.14469">
        <ele>163</ele>
        <time>2021-06-01T15:00:59Z</time>
      </trkpt>
      <trkpt lat="44.41102" lon="1.14446">
        <ele>163</ele>
        <time>2021-06-01T15:01:12Z</time>
      </trkpt>
      <trkpt lat="44.41113" lon="1.14422">
        <ele>162</ele>
        <time>2021-06-01T15:01:28Z</time>
      </trkpt>
      <trkpt lat="44.41107" lon="1.14409">
        <ele>162</ele>
        <time>2021-06-01T15:01:37Z</time>
      </trkpt>
      <trkpt lat="44.41132" lon="1.14352">
        <ele>161</ele>
        <time>2021-06-01T15:02:15Z</time>
      </trkpt>
      <trkpt lat="44.41179" lon="1.14282">
        <ele>161</ele>
        <time>2021-06-01T15:03:10Z</time>
      </trkpt>
      <trkpt lat="44.41248" lon="1.14226">
        <ele>159</ele>
        <time>2021-06-01T15:04:14Z</time>
      </trkpt>
      <trkpt lat="44.41316" lon="1.14184">
        <ele>159</ele>
        <time>2021-06-01T15:05:14Z</time>
      </trkpt>
      <trkpt lat="44.4138" lon="1.14175">
        <ele>158</ele>
        <time>2021-06-01T15:06:05Z</time>
      </trkpt>
      <trkpt lat="44.41416" lon="1.14167">
        <ele>157</ele>
        <time>2021-06-01T15:06:34Z</time>
      </trkpt>
      <trkpt lat="44.41438" lon="1.1417">
        <ele>157</ele>
        <time>2021-06-01T15:06:52Z</time>
      </trkpt>
      <trkpt lat="44.4152" lon="1.14175">
        <ele>156</ele>
        <time>2021-06-01T15:07:58Z</time>
      </trkpt>
      <trkpt lat="44.41577" lon="1.14141">
        <ele>159</ele>
        <time>2021-06-01T15:08:47Z</time>
      </trkpt>
      <trkpt lat="44.41633" lon="1.14113">
        <ele>160</ele>
        <time>2021-06-01T15:09:35Z</time>
      </trkpt>
      <trkpt lat="44.41691" lon="1.14084">
        <ele>160</ele>
        <time>2021-06-01T15:10:24Z</time>
      </trkpt>
      <trkpt lat="44.41711" lon="1.14121">
        <ele>159</ele>
        <time>2021-06-01T15:10:51Z</time>
      </trkpt>
      <trkpt lat="44.41767" lon="1.14223">
        <ele>155</ele>
        <time>2021-06-01T15:12:04Z</time>
      </trkpt>
      <trkpt lat="44.41829" lon="1.14343">
        <ele>151</ele>
        <time>2021-06-01T15:13:29Z</time>
      </trkpt>
      <trkpt lat="44.41868" lon="1.14415">
        <ele>149</ele>
        <time>2021-06-01T15:14:21Z</time>
      </trkpt>
      <trkpt lat="44.41929" lon="1.14468">
        <ele>150</ele>
        <time>2021-06-01T15:15:18Z</time>
      </trkpt>
      <trkpt lat="44.41928" lon="1.14441">
        <ele>150</ele>
        <time>2021-06-01T15:15:34Z</time>
      </trkpt>
      <trkpt lat="44.41938" lon="1.14422">
        <ele>150</ele>
        <time>2021-06-01T15:15:47Z</time>
      </trkpt>
    </trkseg>
  </trk>
  <trk>
    <name><![CDATA[46 - Porte-du-Quercy : le Boulvé : sud-ouest : grand parcours 2019]]></name>
    <extensions>
      <line xmlns="http://www.topografix.com/GPX/gpx_style/0/2">
        <color>008080</color>
        <opacity>0.9</opacity>
        <width>5</width>
      </line>
    </extensions>
    <trkseg>
      <trkpt lat="44.4194" lon="1.14426">
        <ele>150</ele>
        <time>2021-06-01T14:00:25Z</time>
      </trkpt>
      <trkpt lat="44.41977" lon="1.14363">
        <ele>150</ele>
        <time>2021-06-01T14:01:12Z</time>
      </trkpt>
      <trkpt lat="44.42007" lon="1.14345">
        <ele>151</ele>
        <time>2021-06-01T14:01:38Z</time>
      </trkpt>
      <trkpt lat="44.42091" lon="1.14365">
        <ele>148</ele>
        <time>2021-06-01T14:02:46Z</time>
      </trkpt>
      <trkpt lat="44.42135" lon="1.14363">
        <ele>147</ele>
        <time>2021-06-01T14:03:21Z</time>
      </trkpt>
      <trkpt lat="44.42247" lon="1.14285">
        <ele>146</ele>
        <time>2021-06-01T14:05:01Z</time>
      </trkpt>
      <trkpt lat="44.42257" lon="1.14204">
        <ele>150</ele>
        <time>2021-06-01T14:05:48Z</time>
      </trkpt>
      <trkpt lat="44.42265" lon="1.14192">
        <ele>151</ele>
        <time>2021-06-01T14:05:58Z</time>
      </trkpt>
      <trkpt lat="44.42332" lon="1.14136">
        <ele>155</ele>
        <time>2021-06-01T14:07:00Z</time>
      </trkpt>
      <trkpt lat="44.42395" lon="1.14116">
        <ele>155</ele>
        <time>2021-06-01T14:07:52Z</time>
      </trkpt>
      <trkpt lat="44.42545" lon="1.14114">
        <ele>150</ele>
        <time>2021-06-01T14:09:52Z</time>
      </trkpt>
      <trkpt lat="44.42632" lon="1.14091">
        <ele>147</ele>
        <time>2021-06-01T14:11:03Z</time>
      </trkpt>
      <trkpt lat="44.42785" lon="1.14056">
        <ele>142</ele>
        <time>2021-06-01T14:13:07Z</time>
      </trkpt>
      <trkpt lat="44.42865" lon="1.13943">
        <ele>142</ele>
        <time>2021-06-01T14:14:38Z</time>
      </trkpt>
      <trkpt lat="44.42945" lon="1.13832">
        <ele>142</ele>
        <time>2021-06-01T14:16:08Z</time>
      </trkpt>
      <trkpt lat="44.43017" lon="1.13764">
        <ele>143</ele>
        <time>2021-06-01T14:17:18Z</time>
      </trkpt>
      <trkpt lat="44.43113" lon="1.13721">
        <ele>138</ele>
        <time>2021-06-01T14:18:39Z</time>
      </trkpt>
      <trkpt lat="44.43181" lon="1.13613">
        <ele>140</ele>
        <time>2021-06-01T14:20:01Z</time>
      </trkpt>
      <trkpt lat="44.43209" lon="1.13589">
        <ele>140</ele>
        <time>2021-06-01T14:20:27Z</time>
      </trkpt>
      <trkpt lat="44.43283" lon="1.13533">
        <ele>140</ele>
        <time>2021-06-01T14:21:34Z</time>
      </trkpt>
      <trkpt lat="44.43336" lon="1.13511">
        <ele>138</ele>
        <time>2021-06-01T14:22:19Z</time>
      </trkpt>
      <trkpt lat="44.43374" lon="1.13513">
        <ele>136</ele>
        <time>2021-06-01T14:22:49Z</time>
      </trkpt>
      <trkpt lat="44.43443" lon="1.13446">
        <ele>133</ele>
        <time>2021-06-01T14:23:56Z</time>
      </trkpt>
      <trkpt lat="44.4348" lon="1.13475">
        <ele>131</ele>
        <time>2021-06-01T14:24:30Z</time>
      </trkpt>
      <trkpt lat="44.43528" lon="1.1332">
        <ele>134</ele>
        <time>2021-06-01T14:26:07Z</time>
      </trkpt>
      <trkpt lat="44.43468" lon="1.13288">
        <ele>138</ele>
        <time>2021-06-01T14:26:58Z</time>
      </trkpt>
      <trkpt lat="44.4339" lon="1.1317">
        <ele>145</ele>
        <time>2021-06-01T14:28:30Z</time>
      </trkpt>
      <trkpt lat="44.43364" lon="1.13125">
        <ele>147</ele>
        <time>2021-06-01T14:29:03Z</time>
      </trkpt>
      <trkpt lat="44.43334" lon="1.13118">
        <ele>146</ele>
        <time>2021-06-01T14:29:28Z</time>
      </trkpt>
      <trkpt lat="44.43403" lon="1.13039">
        <ele>157</ele>
        <time>2021-06-01T14:30:39Z</time>
      </trkpt>
      <trkpt lat="44.43408" lon="1.13022">
        <ele>159</ele>
        <time>2021-06-01T14:30:50Z</time>
      </trkpt>
      <trkpt lat="44.43401" lon="1.12971">
        <ele>160</ele>
        <time>2021-06-01T14:31:19Z</time>
      </trkpt>
      <trkpt lat="44.43411" lon="1.12942">
        <ele>163</ele>
        <time>2021-06-01T14:31:38Z</time>
      </trkpt>
      <trkpt lat="44.43419" lon="1.12837">
        <ele>165</ele>
        <time>2021-06-01T14:32:38Z</time>
      </trkpt>
      <trkpt lat="44.43417" lon="1.12817">
        <ele>164</ele>
        <time>2021-06-01T14:32:50Z</time>
      </trkpt>
      <trkpt lat="44.43401" lon="1.1279">
        <ele>160</ele>
        <time>2021-06-01T14:33:10Z</time>
      </trkpt>
      <trkpt lat="44.43394" lon="1.12762">
        <ele>159</ele>
        <time>2021-06-01T14:33:27Z</time>
      </trkpt>
      <trkpt lat="44.43406" lon="1.12706">
        <ele>162</ele>
        <time>2021-06-01T14:34:00Z</time>
      </trkpt>
      <trkpt lat="44.43404" lon="1.12648">
        <ele>162</ele>
        <time>2021-06-01T14:34:33Z</time>
      </trkpt>
      <trkpt lat="44.43417" lon="1.12616">
        <ele>165</ele>
        <time>2021-06-01T14:34:54Z</time>
      </trkpt>
      <trkpt lat="44.43421" lon="1.12377">
        <ele>166</ele>
        <time>2021-06-01T14:37:11Z</time>
      </trkpt>
      <trkpt lat="44.43425" lon="1.12286">
        <ele>166</ele>
        <time>2021-06-01T14:38:03Z</time>
      </trkpt>
      <trkpt lat="44.4344" lon="1.1222">
        <ele>168</ele>
        <time>2021-06-01T14:38:43Z</time>
      </trkpt>
      <trkpt lat="44.43456" lon="1.12186">
        <ele>169</ele>
        <time>2021-06-01T14:39:06Z</time>
      </trkpt>
      <trkpt lat="44.43483" lon="1.12161">
        <ele>169</ele>
        <time>2021-06-01T14:39:32Z</time>
      </trkpt>
      <trkpt lat="44.43503" lon="1.12112">
        <ele>168</ele>
        <time>2021-06-01T14:40:04Z</time>
      </trkpt>
      <trkpt lat="44.4353" lon="1.12073">
        <ele>170</ele>
        <time>2021-06-01T14:40:35Z</time>
      </trkpt>
      <trkpt lat="44.43557" lon="1.12025">
        <ele>173</ele>
        <time>2021-06-01T14:41:10Z</time>
      </trkpt>
      <trkpt lat="44.43561" lon="1.12006">
        <ele>173</ele>
        <time>2021-06-01T14:41:22Z</time>
      </trkpt>
      <trkpt lat="44.43562" lon="1.11959">
        <ele>175</ele>
        <time>2021-06-01T14:41:48Z</time>
      </trkpt>
      <trkpt lat="44.43553" lon="1.11836">
        <ele>180</ele>
        <time>2021-06-01T14:42:59Z</time>
      </trkpt>
      <trkpt lat="44.4356" lon="1.11713">
        <ele>185</ele>
        <time>2021-06-01T14:44:10Z</time>
      </trkpt>
      <trkpt lat="44.43564" lon="1.11589">
        <ele>188</ele>
        <time>2021-06-01T14:45:21Z</time>
      </trkpt>
      <trkpt lat="44.43604" lon="1.11505">
        <ele>191</ele>
        <time>2021-06-01T14:46:18Z</time>
      </trkpt>
      <trkpt lat="44.43605" lon="1.11472">
        <ele>193</ele>
        <time>2021-06-01T14:46:37Z</time>
      </trkpt>
      <trkpt lat="44.43592" lon="1.11463">
        <ele>192</ele>
        <time>2021-06-01T14:46:49Z</time>
      </trkpt>
      <trkpt lat="44.43566" lon="1.11468">
        <ele>189</ele>
        <time>2021-06-01T14:47:10Z</time>
      </trkpt>
      <trkpt lat="44.4353" lon="1.11457">
        <ele>186</ele>
        <time>2021-06-01T14:47:39Z</time>
      </trkpt>
      <trkpt lat="44.43505" lon="1.11404">
        <ele>186</ele>
        <time>2021-06-01T14:48:16Z</time>
      </trkpt>
      <trkpt lat="44.43474" lon="1.11312">
        <ele>192</ele>
        <time>2021-06-01T14:49:14Z</time>
      </trkpt>
      <trkpt lat="44.43445" lon="1.1123">
        <ele>198</ele>
        <time>2021-06-01T14:50:06Z</time>
      </trkpt>
      <trkpt lat="44.43421" lon="1.11191">
        <ele>198</ele>
        <time>2021-06-01T14:50:36Z</time>
      </trkpt>
      <trkpt lat="44.43436" lon="1.11144">
        <ele>205</ele>
        <time>2021-06-01T14:51:05Z</time>
      </trkpt>
      <trkpt lat="44.43436" lon="1.1111">
        <ele>208</ele>
        <time>2021-06-01T14:51:24Z</time>
      </trkpt>
      <trkpt lat="44.43425" lon="1.11044">
        <ele>211</ele>
        <time>2021-06-01T14:52:03Z</time>
      </trkpt>
      <trkpt lat="44.43442" lon="1.11006">
        <ele>216</ele>
        <time>2021-06-01T14:52:29Z</time>
      </trkpt>
      <trkpt lat="44.43496" lon="1.10973">
        <ele>226</ele>
        <time>2021-06-01T14:53:16Z</time>
      </trkpt>
      <trkpt lat="44.43456" lon="1.10849">
        <ele>225</ele>
        <time>2021-06-01T14:54:34Z</time>
      </trkpt>
      <trkpt lat="44.43439" lon="1.10842">
        <ele>223</ele>
        <time>2021-06-01T14:54:48Z</time>
      </trkpt>
      <trkpt lat="44.43356" lon="1.10729">
        <ele>232</ele>
        <time>2021-06-01T14:56:21Z</time>
      </trkpt>
      <trkpt lat="44.43353" lon="1.10693">
        <ele>240</ele>
        <time>2021-06-01T14:56:41Z</time>
      </trkpt>
      <trkpt lat="44.43366" lon="1.10648">
        <ele>248</ele>
        <time>2021-06-01T14:57:09Z</time>
      </trkpt>
      <trkpt lat="44.43379" lon="1.10626">
        <ele>250</ele>
        <time>2021-06-01T14:57:25Z</time>
      </trkpt>
      <trkpt lat="44.43339" lon="1.10543">
        <ele>255</ele>
        <time>2021-06-01T14:58:23Z</time>
      </trkpt>
      <trkpt lat="44.43312" lon="1.10542">
        <ele>254</ele>
        <time>2021-06-01T14:58:44Z</time>
      </trkpt>
      <trkpt lat="44.43255" lon="1.10496">
        <ele>254</ele>
        <time>2021-06-01T14:59:37Z</time>
      </trkpt>
      <trkpt lat="44.43207" lon="1.10466">
        <ele>252</ele>
        <time>2021-06-01T15:00:19Z</time>
      </trkpt>
      <trkpt lat="44.43164" lon="1.10418">
        <ele>252</ele>
        <time>2021-06-01T15:01:03Z</time>
      </trkpt>
      <trkpt lat="44.43155" lon="1.10395">
        <ele>251</ele>
        <time>2021-06-01T15:01:18Z</time>
      </trkpt>
      <trkpt lat="44.43021" lon="1.10401">
        <ele>249</ele>
        <time>2021-06-01T15:03:05Z</time>
      </trkpt>
      <trkpt lat="44.42957" lon="1.10398">
        <ele>251</ele>
        <time>2021-06-01T15:03:57Z</time>
      </trkpt>
      <trkpt lat="44.42872" lon="1.1032">
        <ele>253</ele>
        <time>2021-06-01T15:05:18Z</time>
      </trkpt>
      <trkpt lat="44.42863" lon="1.10271">
        <ele>252</ele>
        <time>2021-06-01T15:05:47Z</time>
      </trkpt>
      <trkpt lat="44.42865" lon="1.10196">
        <ele>252</ele>
        <time>2021-06-01T15:06:30Z</time>
      </trkpt>
      <trkpt lat="44.4286" lon="1.10169">
        <ele>252</ele>
        <time>2021-06-01T15:06:46Z</time>
      </trkpt>
      <trkpt lat="44.4284" lon="1.10147">
        <ele>252</ele>
        <time>2021-06-01T15:07:06Z</time>
      </trkpt>
      <trkpt lat="44.42815" lon="1.10133">
        <ele>253</ele>
        <time>2021-06-01T15:07:28Z</time>
      </trkpt>
      <trkpt lat="44.42753" lon="1.10102">
        <ele>256</ele>
        <time>2021-06-01T15:08:21Z</time>
      </trkpt>
      <trkpt lat="44.42707" lon="1.10004">
        <ele>260</ele>
        <time>2021-06-01T15:09:28Z</time>
      </trkpt>
      <trkpt lat="44.42661" lon="1.09909">
        <ele>257</ele>
        <time>2021-06-01T15:10:33Z</time>
      </trkpt>
      <trkpt lat="44.42612" lon="1.09826">
        <ele>259</ele>
        <time>2021-06-01T15:11:35Z</time>
      </trkpt>
      <trkpt lat="44.42498" lon="1.0965">
        <ele>259</ele>
        <time>2021-06-01T15:13:51Z</time>
      </trkpt>
      <trkpt lat="44.4247" lon="1.09576">
        <ele>259</ele>
        <time>2021-06-01T15:14:39Z</time>
      </trkpt>
      <trkpt lat="44.42292" lon="1.09392">
        <ele>250</ele>
        <time>2021-06-01T15:17:36Z</time>
      </trkpt>
      <trkpt lat="44.42155" lon="1.091">
        <ele>254</ele>
        <time>2021-06-01T15:20:55Z</time>
      </trkpt>
      <trkpt lat="44.42068" lon="1.08968">
        <ele>249</ele>
        <time>2021-06-01T15:22:38Z</time>
      </trkpt>
      <trkpt lat="44.42015" lon="1.08843">
        <ele>245</ele>
        <time>2021-06-01T15:24:01Z</time>
      </trkpt>
      <trkpt lat="44.41979" lon="1.08726">
        <ele>243</ele>
        <time>2021-06-01T15:25:14Z</time>
      </trkpt>
      <trkpt lat="44.41968" lon="1.08636">
        <ele>240</ele>
        <time>2021-06-01T15:26:06Z</time>
      </trkpt>
      <trkpt lat="44.4191" lon="1.08636">
        <ele>239</ele>
        <time>2021-06-01T15:26:53Z</time>
      </trkpt>
      <trkpt lat="44.41867" lon="1.08607">
        <ele>237</ele>
        <time>2021-06-01T15:27:31Z</time>
      </trkpt>
      <trkpt lat="44.41836" lon="1.08577">
        <ele>236</ele>
        <time>2021-06-01T15:28:01Z</time>
      </trkpt>
      <trkpt lat="44.41801" lon="1.0858">
        <ele>234</ele>
        <time>2021-06-01T15:28:29Z</time>
      </trkpt>
      <trkpt lat="44.41805" lon="1.08434">
        <ele>231</ele>
        <time>2021-06-01T15:29:53Z</time>
      </trkpt>
      <trkpt lat="44.41793" lon="1.08414">
        <ele>230</ele>
        <time>2021-06-01T15:30:08Z</time>
      </trkpt>
      <trkpt lat="44.41698" lon="1.08292">
        <ele>230</ele>
        <time>2021-06-01T15:31:51Z</time>
      </trkpt>
      <trkpt lat="44.41672" lon="1.08228">
        <ele>229</ele>
        <time>2021-06-01T15:32:33Z</time>
      </trkpt>
      <trkpt lat="44.41603" lon="1.08064">
        <ele>224</ele>
        <time>2021-06-01T15:34:22Z</time>
      </trkpt>
      <trkpt lat="44.41562" lon="1.07971">
        <ele>222</ele>
        <time>2021-06-01T15:35:24Z</time>
      </trkpt>
      <trkpt lat="44.41576" lon="1.07922">
        <ele>223</ele>
        <time>2021-06-01T15:35:55Z</time>
      </trkpt>
      <trkpt lat="44.4158" lon="1.0781">
        <ele>225</ele>
        <time>2021-06-01T15:36:59Z</time>
      </trkpt>
      <trkpt lat="44.41587" lon="1.07786">
        <ele>226</ele>
        <time>2021-06-01T15:37:14Z</time>
      </trkpt>
      <trkpt lat="44.41548" lon="1.07753">
        <ele>224</ele>
        <time>2021-06-01T15:37:50Z</time>
      </trkpt>
      <trkpt lat="44.41525" lon="1.07755">
        <ele>221</ele>
        <time>2021-06-01T15:38:09Z</time>
      </trkpt>
      <trkpt lat="44.41389" lon="1.07795">
        <ele>217</ele>
        <time>2021-06-01T15:40:00Z</time>
      </trkpt>
      <trkpt lat="44.4139" lon="1.07835">
        <ele>217</ele>
        <time>2021-06-01T15:40:23Z</time>
      </trkpt>
      <trkpt lat="44.41383" lon="1.07859">
        <ele>217</ele>
        <time>2021-06-01T15:40:38Z</time>
      </trkpt>
      <trkpt lat="44.4131" lon="1.07957">
        <ele>220</ele>
        <time>2021-06-01T15:41:59Z</time>
      </trkpt>
      <trkpt lat="44.41242" lon="1.08009">
        <ele>225</ele>
        <time>2021-06-01T15:43:01Z</time>
      </trkpt>
      <trkpt lat="44.41143" lon="1.08026">
        <ele>232</ele>
        <time>2021-06-01T15:44:20Z</time>
      </trkpt>
      <trkpt lat="44.41058" lon="1.08108">
        <ele>237</ele>
        <time>2021-06-01T15:45:43Z</time>
      </trkpt>
      <trkpt lat="44.40965" lon="1.08136">
        <ele>238</ele>
        <time>2021-06-01T15:46:59Z</time>
      </trkpt>
      <trkpt lat="44.40837" lon="1.08175">
        <ele>237</ele>
        <time>2021-06-01T15:48:44Z</time>
      </trkpt>
      <trkpt lat="44.40752" lon="1.08164">
        <ele>237</ele>
        <time>2021-06-01T15:49:52Z</time>
      </trkpt>
      <trkpt lat="44.40724" lon="1.08162">
        <ele>237</ele>
        <time>2021-06-01T15:50:15Z</time>
      </trkpt>
      <trkpt lat="44.407" lon="1.08158">
        <ele>237</ele>
        <time>2021-06-01T15:50:34Z</time>
      </trkpt>
      <trkpt lat="44.40728" lon="1.08294">
        <ele>238</ele>
        <time>2021-06-01T15:51:55Z</time>
      </trkpt>
      <trkpt lat="44.4078" lon="1.08478">
        <ele>235</ele>
        <time>2021-06-01T15:53:48Z</time>
      </trkpt>
      <trkpt lat="44.40824" lon="1.08616">
        <ele>239</ele>
        <time>2021-06-01T15:55:15Z</time>
      </trkpt>
      <trkpt lat="44.40839" lon="1.0871">
        <ele>242</ele>
        <time>2021-06-01T15:56:10Z</time>
      </trkpt>
      <trkpt lat="44.40847" lon="1.08829">
        <ele>238</ele>
        <time>2021-06-01T15:57:18Z</time>
      </trkpt>
      <trkpt lat="44.40843" lon="1.0893">
        <ele>237</ele>
        <time>2021-06-01T15:58:16Z</time>
      </trkpt>
      <trkpt lat="44.4084" lon="1.09001">
        <ele>237</ele>
        <time>2021-06-01T15:58:57Z</time>
      </trkpt>
      <trkpt lat="44.4074" lon="1.0899">
        <ele>240</ele>
        <time>2021-06-01T16:00:17Z</time>
      </trkpt>
      <trkpt lat="44.40727" lon="1.09029">
        <ele>240</ele>
        <time>2021-06-01T16:00:42Z</time>
      </trkpt>
      <trkpt lat="44.4072" lon="1.09086">
        <ele>239</ele>
        <time>2021-06-01T16:01:15Z</time>
      </trkpt>
      <trkpt lat="44.40727" lon="1.09154">
        <ele>235</ele>
        <time>2021-06-01T16:01:54Z</time>
      </trkpt>
      <trkpt lat="44.40475" lon="1.09355">
        <ele>234</ele>
        <time>2021-06-01T16:05:46Z</time>
      </trkpt>
      <trkpt lat="44.4061" lon="1.09525">
        <ele>242</ele>
        <time>2021-06-01T16:08:12Z</time>
      </trkpt>
      <trkpt lat="44.40642" lon="1.09533">
        <ele>241</ele>
        <time>2021-06-01T16:08:38Z</time>
      </trkpt>
      <trkpt lat="44.40645" lon="1.09593">
        <ele>240</ele>
        <time>2021-06-01T16:09:12Z</time>
      </trkpt>
      <trkpt lat="44.40684" lon="1.0984">
        <ele>244</ele>
        <time>2021-06-01T16:11:37Z</time>
      </trkpt>
      <trkpt lat="44.40648" lon="1.10037">
        <ele>246</ele>
        <time>2021-06-01T16:13:33Z</time>
      </trkpt>
      <trkpt lat="44.40586" lon="1.10377">
        <ele>245</ele>
        <time>2021-06-01T16:16:54Z</time>
      </trkpt>
      <trkpt lat="44.40491" lon="1.1065">
        <ele>238</ele>
        <time>2021-06-01T16:19:48Z</time>
      </trkpt>
      <trkpt lat="44.40387" lon="1.10828">
        <ele>244</ele>
        <time>2021-06-01T16:21:59Z</time>
      </trkpt>
      <trkpt lat="44.40294" lon="1.1093">
        <ele>244</ele>
        <time>2021-06-01T16:23:34Z</time>
      </trkpt>
      <trkpt lat="44.40189" lon="1.11237">
        <ele>246</ele>
        <time>2021-06-01T16:26:48Z</time>
      </trkpt>
      <trkpt lat="44.40156" lon="1.11479">
        <ele>256</ele>
        <time>2021-06-01T16:29:09Z</time>
      </trkpt>
      <trkpt lat="44.40167" lon="1.11702">
        <ele>257</ele>
        <time>2021-06-01T16:31:17Z</time>
      </trkpt>
      <trkpt lat="44.40145" lon="1.11742">
        <ele>258</ele>
        <time>2021-06-01T16:31:46Z</time>
      </trkpt>
      <trkpt lat="44.40221" lon="1.11775">
        <ele>253</ele>
        <time>2021-06-01T16:32:50Z</time>
      </trkpt>
      <trkpt lat="44.40283" lon="1.11748">
        <ele>250</ele>
        <time>2021-06-01T16:33:42Z</time>
      </trkpt>
      <trkpt lat="44.40313" lon="1.11737">
        <ele>249</ele>
        <time>2021-06-01T16:34:07Z</time>
      </trkpt>
      <trkpt lat="44.40341" lon="1.11736">
        <ele>248</ele>
        <time>2021-06-01T16:34:29Z</time>
      </trkpt>
      <trkpt lat="44.40391" lon="1.1178">
        <ele>248</ele>
        <time>2021-06-01T16:35:16Z</time>
      </trkpt>
      <trkpt lat="44.40487" lon="1.11827">
        <ele>256</ele>
        <time>2021-06-01T16:36:38Z</time>
      </trkpt>
      <trkpt lat="44.40538" lon="1.11881">
        <ele>258</ele>
        <time>2021-06-01T16:37:29Z</time>
      </trkpt>
      <trkpt lat="44.4061" lon="1.11797">
        <ele>255</ele>
        <time>2021-06-01T16:38:44Z</time>
      </trkpt>
      <trkpt lat="44.40769" lon="1.11616">
        <ele>249</ele>
        <time>2021-06-01T16:41:28Z</time>
      </trkpt>
      <trkpt lat="44.40857" lon="1.11532">
        <ele>246</ele>
        <time>2021-06-01T16:42:53Z</time>
      </trkpt>
      <trkpt lat="44.40974" lon="1.11291">
        <ele>245</ele>
        <time>2021-06-01T16:45:40Z</time>
      </trkpt>
      <trkpt lat="44.41008" lon="1.11152">
        <ele>242</ele>
        <time>2021-06-01T16:47:04Z</time>
      </trkpt>
      <trkpt lat="44.41026" lon="1.11091">
        <ele>240</ele>
        <time>2021-06-01T16:47:42Z</time>
      </trkpt>
      <trkpt lat="44.41023" lon="1.11035">
        <ele>240</ele>
        <time>2021-06-01T16:48:14Z</time>
      </trkpt>
      <trkpt lat="44.41004" lon="1.10984">
        <ele>241</ele>
        <time>2021-06-01T16:48:47Z</time>
      </trkpt>
      <trkpt lat="44.41004" lon="1.10941">
        <ele>240</ele>
        <time>2021-06-01T16:49:12Z</time>
      </trkpt>
      <trkpt lat="44.4099" lon="1.10913">
        <ele>240</ele>
        <time>2021-06-01T16:49:31Z</time>
      </trkpt>
      <trkpt lat="44.41005" lon="1.10889">
        <ele>240</ele>
        <time>2021-06-01T16:49:49Z</time>
      </trkpt>
      <trkpt lat="44.41012" lon="1.10825">
        <ele>240</ele>
        <time>2021-06-01T16:50:26Z</time>
      </trkpt>
      <trkpt lat="44.41053" lon="1.10751">
        <ele>235</ele>
        <time>2021-06-01T16:51:20Z</time>
      </trkpt>
      <trkpt lat="44.41102" lon="1.107">
        <ele>229</ele>
        <time>2021-06-01T16:52:09Z</time>
      </trkpt>
      <trkpt lat="44.41148" lon="1.1068">
        <ele>223</ele>
        <time>2021-06-01T16:52:47Z</time>
      </trkpt>
      <trkpt lat="44.41193" lon="1.10694">
        <ele>218</ele>
        <time>2021-06-01T16:53:24Z</time>
      </trkpt>
      <trkpt lat="44.41263" lon="1.10749">
        <ele>205</ele>
        <time>2021-06-01T16:54:29Z</time>
      </trkpt>
      <trkpt lat="44.41312" lon="1.1079">
        <ele>201</ele>
        <time>2021-06-01T16:55:14Z</time>
      </trkpt>
      <trkpt lat="44.41338" lon="1.10844">
        <ele>196</ele>
        <time>2021-06-01T16:55:51Z</time>
      </trkpt>
      <trkpt lat="44.41356" lon="1.10947">
        <ele>191</ele>
        <time>2021-06-01T16:56:52Z</time>
      </trkpt>
      <trkpt lat="44.41371" lon="1.11015">
        <ele>187</ele>
        <time>2021-06-01T16:57:33Z</time>
      </trkpt>
      <trkpt lat="44.41417" lon="1.11124">
        <ele>181</ele>
        <time>2021-06-01T16:58:45Z</time>
      </trkpt>
      <trkpt lat="44.41453" lon="1.11123">
        <ele>179</ele>
        <time>2021-06-01T16:59:14Z</time>
      </trkpt>
      <trkpt lat="44.41481" lon="1.11175">
        <ele>177</ele>
        <time>2021-06-01T16:59:51Z</time>
      </trkpt>
      <trkpt lat="44.41383" lon="1.11241">
        <ele>184</ele>
        <time>2021-06-01T17:01:18Z</time>
      </trkpt>
      <trkpt lat="44.41363" lon="1.11343">
        <ele>189</ele>
        <time>2021-06-01T17:02:19Z</time>
      </trkpt>
      <trkpt lat="44.41396" lon="1.1136">
        <ele>185</ele>
        <time>2021-06-01T17:02:47Z</time>
      </trkpt>
      <trkpt lat="44.41459" lon="1.11474">
        <ele>174</ele>
        <time>2021-06-01T17:04:09Z</time>
      </trkpt>
      <trkpt lat="44.41566" lon="1.11669">
        <ele>166</ele>
        <time>2021-06-01T17:06:30Z</time>
      </trkpt>
      <trkpt lat="44.41582" lon="1.1167">
        <ele>166</ele>
        <time>2021-06-01T17:06:43Z</time>
      </trkpt>
      <trkpt lat="44.41605" lon="1.11708">
        <ele>162</ele>
        <time>2021-06-01T17:07:11Z</time>
      </trkpt>
      <trkpt lat="44.41657" lon="1.1179">
        <ele>157</ele>
        <time>2021-06-01T17:08:14Z</time>
      </trkpt>
      <trkpt lat="44.41693" lon="1.11849">
        <ele>158</ele>
        <time>2021-06-01T17:08:59Z</time>
      </trkpt>
      <trkpt lat="44.4171" lon="1.1188">
        <ele>162</ele>
        <time>2021-06-01T17:09:21Z</time>
      </trkpt>
      <trkpt lat="44.41706" lon="1.11933">
        <ele>165</ele>
        <time>2021-06-01T17:09:51Z</time>
      </trkpt>
      <trkpt lat="44.41697" lon="1.11981">
        <ele>166</ele>
        <time>2021-06-01T17:10:20Z</time>
      </trkpt>
      <trkpt lat="44.41724" lon="1.12127">
        <ele>173</ele>
        <time>2021-06-01T17:11:46Z</time>
      </trkpt>
      <trkpt lat="44.41742" lon="1.12262">
        <ele>172</ele>
        <time>2021-06-01T17:13:05Z</time>
      </trkpt>
      <trkpt lat="44.41765" lon="1.12416">
        <ele>176</ele>
        <time>2021-06-01T17:14:34Z</time>
      </trkpt>
      <trkpt lat="44.41776" lon="1.12523">
        <ele>182</ele>
        <time>2021-06-01T17:15:36Z</time>
      </trkpt>
      <trkpt lat="44.41781" lon="1.12572">
        <ele>185</ele>
        <time>2021-06-01T17:16:05Z</time>
      </trkpt>
      <trkpt lat="44.41823" lon="1.12965">
        <ele>207</ele>
        <time>2021-06-01T17:19:52Z</time>
      </trkpt>
      <trkpt lat="44.41847" lon="1.12944">
        <ele>209</ele>
        <time>2021-06-01T17:20:15Z</time>
      </trkpt>
      <trkpt lat="44.41861" lon="1.12861">
        <ele>212</ele>
        <time>2021-06-01T17:21:03Z</time>
      </trkpt>
      <trkpt lat="44.4188" lon="1.12965">
        <ele>221</ele>
        <time>2021-06-01T17:22:05Z</time>
      </trkpt>
      <trkpt lat="44.41921" lon="1.1305">
        <ele>233</ele>
        <time>2021-06-01T17:23:03Z</time>
      </trkpt>
      <trkpt lat="44.41914" lon="1.13113">
        <ele>236</ele>
        <time>2021-06-01T17:23:40Z</time>
      </trkpt>
      <trkpt lat="44.41885" lon="1.13179">
        <ele>241</ele>
        <time>2021-06-01T17:24:24Z</time>
      </trkpt>
      <trkpt lat="44.41868" lon="1.13224">
        <ele>240</ele>
        <time>2021-06-01T17:24:53Z</time>
      </trkpt>
      <trkpt lat="44.4189" lon="1.13219">
        <ele>242</ele>
        <time>2021-06-01T17:25:11Z</time>
      </trkpt>
      <trkpt lat="44.41924" lon="1.13285">
        <ele>244</ele>
        <time>2021-06-01T17:25:58Z</time>
      </trkpt>
      <trkpt lat="44.41979" lon="1.13369">
        <ele>239</ele>
        <time>2021-06-01T17:27:03Z</time>
      </trkpt>
      <trkpt lat="44.42019" lon="1.13418">
        <ele>239</ele>
        <time>2021-06-01T17:27:45Z</time>
      </trkpt>
      <trkpt lat="44.42073" lon="1.13512">
        <ele>241</ele>
        <time>2021-06-01T17:28:54Z</time>
      </trkpt>
      <trkpt lat="44.4203" lon="1.1411">
        <ele>170</ele>
        <time>2021-06-01T17:34:38Z</time>
      </trkpt>
      <trkpt lat="44.42032" lon="1.14149">
        <ele>167</ele>
        <time>2021-06-01T17:35:00Z</time>
      </trkpt>
      <trkpt lat="44.41996" lon="1.14197">
        <ele>162</ele>
        <time>2021-06-01T17:35:40Z</time>
      </trkpt>
      <trkpt lat="44.42024" lon="1.14307">
        <ele>152</ele>
        <time>2021-06-01T17:36:47Z</time>
      </trkpt>
      <trkpt lat="44.42027" lon="1.14329">
        <ele>151</ele>
        <time>2021-06-01T17:37:00Z</time>
      </trkpt>
      <trkpt lat="44.41997" lon="1.14344">
        <ele>151</ele>
        <time>2021-06-01T17:37:25Z</time>
      </trkpt>
      <trkpt lat="44.41965" lon="1.14386">
        <ele>150</ele>
        <time>2021-06-01T17:38:00Z</time>
      </trkpt>
      <trkpt lat="44.4194" lon="1.14429">
        <ele>150</ele>
        <time>2021-06-01T17:38:32Z</time>
      </trkpt>
    </trkseg>
  </trk>
  <trk>
    <name><![CDATA[46 - Porte-du-Quercy : le Boulvé - nord - Grand parcours 2018]]></name>
    <extensions>
      <line xmlns="http://www.topografix.com/GPX/gpx_style/0/2">
        <color>FF0000</color>
        <opacity>0.9</opacity>
        <width>5</width>
      </line>
    </extensions>
    <trkseg>
      <trkpt lat="44.41943" lon="1.14416">
        <ele>150</ele>
        <time>2021-06-01T15:05:27Z</time>
      </trkpt>
      <trkpt lat="44.41929" lon="1.14445">
        <ele>150</ele>
        <time>2021-06-01T15:05:47Z</time>
      </trkpt>
      <trkpt lat="44.41933" lon="1.14659">
        <ele>151</ele>
        <time>2021-06-01T15:07:49Z</time>
      </trkpt>
      <trkpt lat="44.41961" lon="1.14674">
        <ele>152</ele>
        <time>2021-06-01T15:08:13Z</time>
      </trkpt>
      <trkpt lat="44.41985" lon="1.14674">
        <ele>152</ele>
        <time>2021-06-01T15:08:33Z</time>
      </trkpt>
      <trkpt lat="44.41983" lon="1.14722">
        <ele>152</ele>
        <time>2021-06-01T15:09:00Z</time>
      </trkpt>
      <trkpt lat="44.41987" lon="1.14726">
        <ele>153</ele>
        <time>2021-06-01T15:09:04Z</time>
      </trkpt>
      <trkpt lat="44.41975" lon="1.14764">
        <ele>153</ele>
        <time>2021-06-01T15:09:28Z</time>
      </trkpt>
      <trkpt lat="44.41956" lon="1.14836">
        <ele>155</ele>
        <time>2021-06-01T15:10:12Z</time>
      </trkpt>
      <trkpt lat="44.41939" lon="1.14984">
        <ele>154</ele>
        <time>2021-06-01T15:11:37Z</time>
      </trkpt>
      <trkpt lat="44.41924" lon="1.15061">
        <ele>155</ele>
        <time>2021-06-01T15:12:23Z</time>
      </trkpt>
      <trkpt lat="44.41974" lon="1.15138">
        <ele>152</ele>
        <time>2021-06-01T15:13:23Z</time>
      </trkpt>
      <trkpt lat="44.41985" lon="1.15195">
        <ele>152</ele>
        <time>2021-06-01T15:13:56Z</time>
      </trkpt>
      <trkpt lat="44.41992" lon="1.15223">
        <ele>151</ele>
        <time>2021-06-01T15:14:13Z</time>
      </trkpt>
      <trkpt lat="44.4199" lon="1.1527">
        <ele>152</ele>
        <time>2021-06-01T15:14:40Z</time>
      </trkpt>
      <trkpt lat="44.41995" lon="1.15298">
        <ele>152</ele>
        <time>2021-06-01T15:14:57Z</time>
      </trkpt>
      <trkpt lat="44.42009" lon="1.15336">
        <ele>152</ele>
        <time>2021-06-01T15:15:21Z</time>
      </trkpt>
      <trkpt lat="44.41987" lon="1.15419">
        <ele>154</ele>
        <time>2021-06-01T15:16:12Z</time>
      </trkpt>
      <trkpt lat="44.41951" lon="1.15491">
        <ele>154</ele>
        <time>2021-06-01T15:17:02Z</time>
      </trkpt>
      <trkpt lat="44.41947" lon="1.15539">
        <ele>155</ele>
        <time>2021-06-01T15:17:30Z</time>
      </trkpt>
      <trkpt lat="44.4196" lon="1.15574">
        <ele>155</ele>
        <time>2021-06-01T15:17:52Z</time>
      </trkpt>
      <trkpt lat="44.41953" lon="1.15618">
        <ele>156</ele>
        <time>2021-06-01T15:18:18Z</time>
      </trkpt>
      <trkpt lat="44.41932" lon="1.15754">
        <ele>158</ele>
        <time>2021-06-01T15:19:38Z</time>
      </trkpt>
      <trkpt lat="44.41883" lon="1.15847">
        <ele>160</ele>
        <time>2021-06-01T15:20:44Z</time>
      </trkpt>
      <trkpt lat="44.41888" lon="1.1607">
        <ele>166</ele>
        <time>2021-06-01T15:22:51Z</time>
      </trkpt>
      <trkpt lat="44.4187" lon="1.16249">
        <ele>168</ele>
        <time>2021-06-01T15:24:35Z</time>
      </trkpt>
      <trkpt lat="44.41829" lon="1.16365">
        <ele>170</ele>
        <time>2021-06-01T15:25:49Z</time>
      </trkpt>
      <trkpt lat="44.41806" lon="1.16469">
        <ele>173</ele>
        <time>2021-06-01T15:26:51Z</time>
      </trkpt>
      <trkpt lat="44.41796" lon="1.16591">
        <ele>174</ele>
        <time>2021-06-01T15:28:01Z</time>
      </trkpt>
      <trkpt lat="44.41797" lon="1.16618">
        <ele>175</ele>
        <time>2021-06-01T15:28:17Z</time>
      </trkpt>
      <trkpt lat="44.4178" lon="1.16632">
        <ele>174</ele>
        <time>2021-06-01T15:28:32Z</time>
      </trkpt>
      <trkpt lat="44.418" lon="1.1671">
        <ele>177</ele>
        <time>2021-06-01T15:29:20Z</time>
      </trkpt>
      <trkpt lat="44.4168" lon="1.16774">
        <ele>178</ele>
        <time>2021-06-01T15:31:03Z</time>
      </trkpt>
      <trkpt lat="44.41691" lon="1.16862">
        <ele>179</ele>
        <time>2021-06-01T15:31:54Z</time>
      </trkpt>
      <trkpt lat="44.41711" lon="1.17014">
        <ele>182</ele>
        <time>2021-06-01T15:33:22Z</time>
      </trkpt>
      <trkpt lat="44.4165" lon="1.17053">
        <ele>185</ele>
        <time>2021-06-01T15:34:16Z</time>
      </trkpt>
      <trkpt lat="44.41537" lon="1.17147">
        <ele>188</ele>
        <time>2021-06-01T15:36:01Z</time>
      </trkpt>
      <trkpt lat="44.41608" lon="1.17268">
        <ele>191</ele>
        <time>2021-06-01T15:37:31Z</time>
      </trkpt>
      <trkpt lat="44.41651" lon="1.17281">
        <ele>194</ele>
        <time>2021-06-01T15:38:06Z</time>
      </trkpt>
      <trkpt lat="44.41703" lon="1.17396">
        <ele>222</ele>
        <time>2021-06-01T15:39:24Z</time>
      </trkpt>
      <trkpt lat="44.41856" lon="1.1728">
        <ele>230</ele>
        <time>2021-06-01T15:41:43Z</time>
      </trkpt>
      <trkpt lat="44.41916" lon="1.17255">
        <ele>239</ele>
        <time>2021-06-01T15:42:33Z</time>
      </trkpt>
      <trkpt lat="44.41957" lon="1.17196">
        <ele>238</ele>
        <time>2021-06-01T15:43:20Z</time>
      </trkpt>
      <trkpt lat="44.41983" lon="1.17145">
        <ele>242</ele>
        <time>2021-06-01T15:43:56Z</time>
      </trkpt>
      <trkpt lat="44.42046" lon="1.17122">
        <ele>247</ele>
        <time>2021-06-01T15:44:48Z</time>
      </trkpt>
      <trkpt lat="44.42097" lon="1.17115">
        <ele>248</ele>
        <time>2021-06-01T15:45:29Z</time>
      </trkpt>
      <trkpt lat="44.42112" lon="1.17124">
        <ele>248</ele>
        <time>2021-06-01T15:45:42Z</time>
      </trkpt>
      <trkpt lat="44.42188" lon="1.17085">
        <ele>247</ele>
        <time>2021-06-01T15:46:47Z</time>
      </trkpt>
      <trkpt lat="44.4228" lon="1.17037">
        <ele>247</ele>
        <time>2021-06-01T15:48:06Z</time>
      </trkpt>
      <trkpt lat="44.42472" lon="1.171">
        <ele>250</ele>
        <time>2021-06-01T15:50:44Z</time>
      </trkpt>
      <trkpt lat="44.42496" lon="1.17214">
        <ele>252</ele>
        <time>2021-06-01T15:51:52Z</time>
      </trkpt>
      <trkpt lat="44.42469" lon="1.17355">
        <ele>245</ele>
        <time>2021-06-01T15:53:15Z</time>
      </trkpt>
      <trkpt lat="44.42451" lon="1.17439">
        <ele>239</ele>
        <time>2021-06-01T15:54:05Z</time>
      </trkpt>
      <trkpt lat="44.42457" lon="1.17534">
        <ele>233</ele>
        <time>2021-06-01T15:55:00Z</time>
      </trkpt>
      <trkpt lat="44.42455" lon="1.17585">
        <ele>229</ele>
        <time>2021-06-01T15:55:29Z</time>
      </trkpt>
      <trkpt lat="44.42425" lon="1.17692">
        <ele>221</ele>
        <time>2021-06-01T15:56:35Z</time>
      </trkpt>
      <trkpt lat="44.42386" lon="1.17695">
        <ele>214</ele>
        <time>2021-06-01T15:57:06Z</time>
      </trkpt>
      <trkpt lat="44.42385" lon="1.17733">
        <ele>211</ele>
        <time>2021-06-01T15:57:28Z</time>
      </trkpt>
      <trkpt lat="44.42398" lon="1.17775">
        <ele>207</ele>
        <time>2021-06-01T15:57:54Z</time>
      </trkpt>
      <trkpt lat="44.42453" lon="1.17858">
        <ele>195</ele>
        <time>2021-06-01T15:58:59Z</time>
      </trkpt>
      <trkpt lat="44.42449" lon="1.17901">
        <ele>192</ele>
        <time>2021-06-01T15:59:23Z</time>
      </trkpt>
      <trkpt lat="44.42405" lon="1.17961">
        <ele>189</ele>
        <time>2021-06-01T16:00:13Z</time>
      </trkpt>
      <trkpt lat="44.42362" lon="1.18047">
        <ele>186</ele>
        <time>2021-06-01T16:01:13Z</time>
      </trkpt>
      <trkpt lat="44.42333" lon="1.18278">
        <ele>178</ele>
        <time>2021-06-01T16:03:27Z</time>
      </trkpt>
      <trkpt lat="44.42346" lon="1.1832">
        <ele>177</ele>
        <time>2021-06-01T16:03:53Z</time>
      </trkpt>
      <trkpt lat="44.42388" lon="1.18344">
        <ele>177</ele>
        <time>2021-06-01T16:04:29Z</time>
      </trkpt>
      <trkpt lat="44.42462" lon="1.18375">
        <ele>181</ele>
        <time>2021-06-01T16:05:31Z</time>
      </trkpt>
      <trkpt lat="44.42461" lon="1.18422">
        <ele>180</ele>
        <time>2021-06-01T16:05:58Z</time>
      </trkpt>
      <trkpt lat="44.42469" lon="1.18515">
        <ele>185</ele>
        <time>2021-06-01T16:06:52Z</time>
      </trkpt>
      <trkpt lat="44.42526" lon="1.18495">
        <ele>189</ele>
        <time>2021-06-01T16:07:39Z</time>
      </trkpt>
      <trkpt lat="44.42564" lon="1.18506">
        <ele>190</ele>
        <time>2021-06-01T16:08:10Z</time>
      </trkpt>
      <trkpt lat="44.42619" lon="1.18417">
        <ele>192</ele>
        <time>2021-06-01T16:09:17Z</time>
      </trkpt>
      <trkpt lat="44.42613" lon="1.18375">
        <ele>196</ele>
        <time>2021-06-01T16:09:41Z</time>
      </trkpt>
      <trkpt lat="44.42582" lon="1.18294">
        <ele>204</ele>
        <time>2021-06-01T16:10:34Z</time>
      </trkpt>
      <trkpt lat="44.42621" lon="1.18155">
        <ele>216</ele>
        <time>2021-06-01T16:11:59Z</time>
      </trkpt>
      <trkpt lat="44.42675" lon="1.18075">
        <ele>229</ele>
        <time>2021-06-01T16:13:02Z</time>
      </trkpt>
      <trkpt lat="44.42692" lon="1.18091">
        <ele>228</ele>
        <time>2021-06-01T16:13:19Z</time>
      </trkpt>
      <trkpt lat="44.42736" lon="1.18053">
        <ele>233</ele>
        <time>2021-06-01T16:14:00Z</time>
      </trkpt>
      <trkpt lat="44.42827" lon="1.18035">
        <ele>231</ele>
        <time>2021-06-01T16:15:14Z</time>
      </trkpt>
      <trkpt lat="44.42864" lon="1.18006">
        <ele>237</ele>
        <time>2021-06-01T16:15:48Z</time>
      </trkpt>
      <trkpt lat="44.42904" lon="1.18013">
        <ele>234</ele>
        <time>2021-06-01T16:16:20Z</time>
      </trkpt>
      <trkpt lat="44.4296" lon="1.18054">
        <ele>230</ele>
        <time>2021-06-01T16:17:11Z</time>
      </trkpt>
      <trkpt lat="44.4302" lon="1.18064">
        <ele>234</ele>
        <time>2021-06-01T16:17:59Z</time>
      </trkpt>
      <trkpt lat="44.43089" lon="1.18117">
        <ele>234</ele>
        <time>2021-06-01T16:19:02Z</time>
      </trkpt>
      <trkpt lat="44.43137" lon="1.18177">
        <ele>232</ele>
        <time>2021-06-01T16:19:53Z</time>
      </trkpt>
      <trkpt lat="44.43226" lon="1.18174">
        <ele>226</ele>
        <time>2021-06-01T16:21:05Z</time>
      </trkpt>
      <trkpt lat="44.43255" lon="1.18154">
        <ele>222</ele>
        <time>2021-06-01T16:21:31Z</time>
      </trkpt>
      <trkpt lat="44.43283" lon="1.18189">
        <ele>219</ele>
        <time>2021-06-01T16:22:01Z</time>
      </trkpt>
      <trkpt lat="44.43359" lon="1.1818">
        <ele>214</ele>
        <time>2021-06-01T16:23:02Z</time>
      </trkpt>
      <trkpt lat="44.43402" lon="1.18178">
        <ele>212</ele>
        <time>2021-06-01T16:23:36Z</time>
      </trkpt>
      <trkpt lat="44.43442" lon="1.18219">
        <ele>211</ele>
        <time>2021-06-01T16:24:16Z</time>
      </trkpt>
      <trkpt lat="44.43487" lon="1.18252">
        <ele>206</ele>
        <time>2021-06-01T16:24:57Z</time>
      </trkpt>
      <trkpt lat="44.43513" lon="1.18257">
        <ele>204</ele>
        <time>2021-06-01T16:25:18Z</time>
      </trkpt>
      <trkpt lat="44.43541" lon="1.18278">
        <ele>203</ele>
        <time>2021-06-01T16:25:43Z</time>
      </trkpt>
      <trkpt lat="44.43543" lon="1.18296">
        <ele>203</ele>
        <time>2021-06-01T16:25:53Z</time>
      </trkpt>
      <trkpt lat="44.43578" lon="1.18303">
        <ele>200</ele>
        <time>2021-06-01T16:26:22Z</time>
      </trkpt>
      <trkpt lat="44.43583" lon="1.18271">
        <ele>201</ele>
        <time>2021-06-01T16:26:40Z</time>
      </trkpt>
      <trkpt lat="44.43561" lon="1.18237">
        <ele>203</ele>
        <time>2021-06-01T16:27:07Z</time>
      </trkpt>
      <trkpt lat="44.43571" lon="1.18186">
        <ele>207</ele>
        <time>2021-06-01T16:27:37Z</time>
      </trkpt>
      <trkpt lat="44.4359" lon="1.18155">
        <ele>211</ele>
        <time>2021-06-01T16:28:00Z</time>
      </trkpt>
      <trkpt lat="44.43588" lon="1.18104">
        <ele>216</ele>
        <time>2021-06-01T16:28:29Z</time>
      </trkpt>
      <trkpt lat="44.43618" lon="1.18048">
        <ele>225</ele>
        <time>2021-06-01T16:29:09Z</time>
      </trkpt>
      <trkpt lat="44.43639" lon="1.17982">
        <ele>228</ele>
        <time>2021-06-01T16:29:51Z</time>
      </trkpt>
      <trkpt lat="44.43673" lon="1.1796">
        <ele>227</ele>
        <time>2021-06-01T16:30:21Z</time>
      </trkpt>
      <trkpt lat="44.43689" lon="1.17993">
        <ele>229</ele>
        <time>2021-06-01T16:30:44Z</time>
      </trkpt>
      <trkpt lat="44.43731" lon="1.18061">
        <ele>232</ele>
        <time>2021-06-01T16:31:35Z</time>
      </trkpt>
      <trkpt lat="44.43749" lon="1.18057">
        <ele>234</ele>
        <time>2021-06-01T16:31:50Z</time>
      </trkpt>
      <trkpt lat="44.43763" lon="1.18013">
        <ele>234</ele>
        <time>2021-06-01T16:32:17Z</time>
      </trkpt>
      <trkpt lat="44.43779" lon="1.17975">
        <ele>235</ele>
        <time>2021-06-01T16:32:42Z</time>
      </trkpt>
      <trkpt lat="44.43841" lon="1.17861">
        <ele>240</ele>
        <time>2021-06-01T16:34:04Z</time>
      </trkpt>
      <trkpt lat="44.43878" lon="1.17834">
        <ele>243</ele>
        <time>2021-06-01T16:34:38Z</time>
      </trkpt>
      <trkpt lat="44.43937" lon="1.1778">
        <ele>248</ele>
        <time>2021-06-01T16:35:34Z</time>
      </trkpt>
      <trkpt lat="44.44061" lon="1.17632">
        <ele>263</ele>
        <time>2021-06-01T16:37:45Z</time>
      </trkpt>
      <trkpt lat="44.43961" lon="1.17482">
        <ele>259</ele>
        <time>2021-06-01T16:39:42Z</time>
      </trkpt>
      <trkpt lat="44.44033" lon="1.17496">
        <ele>262</ele>
        <time>2021-06-01T16:40:40Z</time>
      </trkpt>
      <trkpt lat="44.44131" lon="1.17439">
        <ele>267</ele>
        <time>2021-06-01T16:42:05Z</time>
      </trkpt>
      <trkpt lat="44.44147" lon="1.174">
        <ele>267</ele>
        <time>2021-06-01T16:42:31Z</time>
      </trkpt>
      <trkpt lat="44.44244" lon="1.17434">
        <ele>273</ele>
        <time>2021-06-01T16:43:51Z</time>
      </trkpt>
      <trkpt lat="44.44315" lon="1.17376">
        <ele>265</ele>
        <time>2021-06-01T16:44:57Z</time>
      </trkpt>
      <trkpt lat="44.44453" lon="1.17342">
        <ele>253</ele>
        <time>2021-06-01T16:46:49Z</time>
      </trkpt>
      <trkpt lat="44.44545" lon="1.17328">
        <ele>249</ele>
        <time>2021-06-01T16:48:03Z</time>
      </trkpt>
      <trkpt lat="44.44618" lon="1.17267">
        <ele>246</ele>
        <time>2021-06-01T16:49:11Z</time>
      </trkpt>
      <trkpt lat="44.44694" lon="1.17158">
        <ele>237</ele>
        <time>2021-06-01T16:50:38Z</time>
      </trkpt>
      <trkpt lat="44.44718" lon="1.17243">
        <ele>236</ele>
        <time>2021-06-01T16:51:30Z</time>
      </trkpt>
      <trkpt lat="44.44739" lon="1.17326">
        <ele>233</ele>
        <time>2021-06-01T16:52:21Z</time>
      </trkpt>
      <trkpt lat="44.44709" lon="1.17386">
        <ele>232</ele>
        <time>2021-06-01T16:53:03Z</time>
      </trkpt>
      <trkpt lat="44.44704" lon="1.17418">
        <ele>230</ele>
        <time>2021-06-01T16:53:21Z</time>
      </trkpt>
      <trkpt lat="44.44747" lon="1.17498">
        <ele>223</ele>
        <time>2021-06-01T16:54:18Z</time>
      </trkpt>
      <trkpt lat="44.44793" lon="1.17557">
        <ele>224</ele>
        <time>2021-06-01T16:55:08Z</time>
      </trkpt>
      <trkpt lat="44.44803" lon="1.17615">
        <ele>228</ele>
        <time>2021-06-01T16:55:43Z</time>
      </trkpt>
      <trkpt lat="44.44794" lon="1.1768">
        <ele>236</ele>
        <time>2021-06-01T16:56:20Z</time>
      </trkpt>
      <trkpt lat="44.44807" lon="1.17751">
        <ele>244</ele>
        <time>2021-06-01T16:57:02Z</time>
      </trkpt>
      <trkpt lat="44.44878" lon="1.17754">
        <ele>240</ele>
        <time>2021-06-01T16:57:59Z</time>
      </trkpt>
      <trkpt lat="44.44902" lon="1.17739">
        <ele>237</ele>
        <time>2021-06-01T16:58:20Z</time>
      </trkpt>
      <trkpt lat="44.45001" lon="1.17817">
        <ele>235</ele>
        <time>2021-06-01T16:59:51Z</time>
      </trkpt>
      <trkpt lat="44.45126" lon="1.17896">
        <ele>237</ele>
        <time>2021-06-01T17:01:41Z</time>
      </trkpt>
      <trkpt lat="44.45212" lon="1.17865">
        <ele>238</ele>
        <time>2021-06-01T17:02:52Z</time>
      </trkpt>
      <trkpt lat="44.45305" lon="1.17864">
        <ele>240</ele>
        <time>2021-06-01T17:04:06Z</time>
      </trkpt>
      <trkpt lat="44.45369" lon="1.18199">
        <ele>222</ele>
        <time>2021-06-01T17:07:25Z</time>
      </trkpt>
      <trkpt lat="44.45381" lon="1.18288">
        <ele>229</ele>
        <time>2021-06-01T17:08:16Z</time>
      </trkpt>
      <trkpt lat="44.45417" lon="1.18304">
        <ele>231</ele>
        <time>2021-06-01T17:08:47Z</time>
      </trkpt>
      <trkpt lat="44.45468" lon="1.18293">
        <ele>227</ele>
        <time>2021-06-01T17:09:28Z</time>
      </trkpt>
      <trkpt lat="44.45513" lon="1.1832">
        <ele>229</ele>
        <time>2021-06-01T17:10:07Z</time>
      </trkpt>
      <trkpt lat="44.45587" lon="1.18364">
        <ele>233</ele>
        <time>2021-06-01T17:11:12Z</time>
      </trkpt>
      <trkpt lat="44.45581" lon="1.18418">
        <ele>235</ele>
        <time>2021-06-01T17:11:43Z</time>
      </trkpt>
      <trkpt lat="44.45666" lon="1.18464">
        <ele>232</ele>
        <time>2021-06-01T17:12:56Z</time>
      </trkpt>
      <trkpt lat="44.45762" lon="1.18524">
        <ele>229</ele>
        <time>2021-06-01T17:14:20Z</time>
      </trkpt>
      <trkpt lat="44.45819" lon="1.18515">
        <ele>230</ele>
        <time>2021-06-01T17:15:06Z</time>
      </trkpt>
      <trkpt lat="44.45881" lon="1.18556">
        <ele>231</ele>
        <time>2021-06-01T17:16:01Z</time>
      </trkpt>
      <trkpt lat="44.4593" lon="1.18585">
        <ele>233</ele>
        <time>2021-06-01T17:16:43Z</time>
      </trkpt>
      <trkpt lat="44.46" lon="1.18634">
        <ele>232</ele>
        <time>2021-06-01T17:17:46Z</time>
      </trkpt>
      <trkpt lat="44.46028" lon="1.1865">
        <ele>230</ele>
        <time>2021-06-01T17:18:10Z</time>
      </trkpt>
      <trkpt lat="44.46029" lon="1.18754">
        <ele>221</ele>
        <time>2021-06-01T17:19:10Z</time>
      </trkpt>
      <trkpt lat="44.46074" lon="1.18736">
        <ele>222</ele>
        <time>2021-06-01T17:19:47Z</time>
      </trkpt>
      <trkpt lat="44.46143" lon="1.18687">
        <ele>218</ele>
        <time>2021-06-01T17:20:49Z</time>
      </trkpt>
      <trkpt lat="44.46191" lon="1.18696">
        <ele>211</ele>
        <time>2021-06-01T17:21:28Z</time>
      </trkpt>
      <trkpt lat="44.4628" lon="1.18672">
        <ele>207</ele>
        <time>2021-06-01T17:22:40Z</time>
      </trkpt>
      <trkpt lat="44.46297" lon="1.18683">
        <ele>207</ele>
        <time>2021-06-01T17:22:55Z</time>
      </trkpt>
      <trkpt lat="44.46324" lon="1.18773">
        <ele>205</ele>
        <time>2021-06-01T17:23:51Z</time>
      </trkpt>
      <trkpt lat="44.46327" lon="1.18833">
        <ele>205</ele>
        <time>2021-06-01T17:24:26Z</time>
      </trkpt>
      <trkpt lat="44.46357" lon="1.18868">
        <ele>209</ele>
        <time>2021-06-01T17:24:57Z</time>
      </trkpt>
      <trkpt lat="44.46344" lon="1.18931">
        <ele>208</ele>
        <time>2021-06-01T17:25:34Z</time>
      </trkpt>
      <trkpt lat="44.46339" lon="1.18976">
        <ele>203</ele>
        <time>2021-06-01T17:26:00Z</time>
      </trkpt>
      <trkpt lat="44.46409" lon="1.19039">
        <ele>207</ele>
        <time>2021-06-01T17:27:07Z</time>
      </trkpt>
      <trkpt lat="44.46447" lon="1.19088">
        <ele>203</ele>
        <time>2021-06-01T17:27:48Z</time>
      </trkpt>
      <trkpt lat="44.4646" lon="1.19127">
        <ele>201</ele>
        <time>2021-06-01T17:28:13Z</time>
      </trkpt>
      <trkpt lat="44.4647" lon="1.19186">
        <ele>199</ele>
        <time>2021-06-01T17:28:48Z</time>
      </trkpt>
      <trkpt lat="44.46501" lon="1.19287">
        <ele>203</ele>
        <time>2021-06-01T17:29:50Z</time>
      </trkpt>
      <trkpt lat="44.4651" lon="1.19351">
        <ele>199</ele>
        <time>2021-06-01T17:30:28Z</time>
      </trkpt>
      <trkpt lat="44.46524" lon="1.19423">
        <ele>195</ele>
        <time>2021-06-01T17:31:10Z</time>
      </trkpt>
      <trkpt lat="44.46549" lon="1.19463">
        <ele>196</ele>
        <time>2021-06-01T17:31:41Z</time>
      </trkpt>
      <trkpt lat="44.46575" lon="1.19482">
        <ele>201</ele>
        <time>2021-06-01T17:32:04Z</time>
      </trkpt>
      <trkpt lat="44.46567" lon="1.19455">
        <ele>200</ele>
        <time>2021-06-01T17:32:21Z</time>
      </trkpt>
      <trkpt lat="44.46572" lon="1.19442">
        <ele>201</ele>
        <time>2021-06-01T17:32:29Z</time>
      </trkpt>
      <trkpt lat="44.46563" lon="1.19417">
        <ele>201</ele>
        <time>2021-06-01T17:32:45Z</time>
      </trkpt>
      <trkpt lat="44.46551" lon="1.19389">
        <ele>199</ele>
        <time>2021-06-01T17:33:04Z</time>
      </trkpt>
      <trkpt lat="44.46541" lon="1.19298">
        <ele>200</ele>
        <time>2021-06-01T17:33:57Z</time>
      </trkpt>
      <trkpt lat="44.46523" lon="1.19236">
        <ele>203</ele>
        <time>2021-06-01T17:34:35Z</time>
      </trkpt>
      <trkpt lat="44.46507" lon="1.19214">
        <ele>205</ele>
        <time>2021-06-01T17:34:53Z</time>
      </trkpt>
      <trkpt lat="44.46497" lon="1.19162">
        <ele>206</ele>
        <time>2021-06-01T17:35:24Z</time>
      </trkpt>
      <trkpt lat="44.4648" lon="1.19163">
        <ele>203</ele>
        <time>2021-06-01T17:35:37Z</time>
      </trkpt>
      <trkpt lat="44.46465" lon="1.19151">
        <ele>200</ele>
        <time>2021-06-01T17:35:51Z</time>
      </trkpt>
      <trkpt lat="44.46453" lon="1.19108">
        <ele>202</ele>
        <time>2021-06-01T17:36:17Z</time>
      </trkpt>
      <trkpt lat="44.46433" lon="1.19072">
        <ele>205</ele>
        <time>2021-06-01T17:36:43Z</time>
      </trkpt>
      <trkpt lat="44.46396" lon="1.19024">
        <ele>207</ele>
        <time>2021-06-01T17:37:24Z</time>
      </trkpt>
      <trkpt lat="44.46373" lon="1.19005">
        <ele>206</ele>
        <time>2021-06-01T17:37:45Z</time>
      </trkpt>
      <trkpt lat="44.46342" lon="1.18981">
        <ele>203</ele>
        <time>2021-06-01T17:38:14Z</time>
      </trkpt>
      <trkpt lat="44.46339" lon="1.1895">
        <ele>206</ele>
        <time>2021-06-01T17:38:31Z</time>
      </trkpt>
      <trkpt lat="44.4635" lon="1.18922">
        <ele>209</ele>
        <time>2021-06-01T17:38:50Z</time>
      </trkpt>
      <trkpt lat="44.46371" lon="1.18885">
        <ele>211</ele>
        <time>2021-06-01T17:39:17Z</time>
      </trkpt>
      <trkpt lat="44.46412" lon="1.18836">
        <ele>214</ele>
        <time>2021-06-01T17:40:00Z</time>
      </trkpt>
      <trkpt lat="44.46404" lon="1.18767">
        <ele>211</ele>
        <time>2021-06-01T17:40:40Z</time>
      </trkpt>
      <trkpt lat="44.46404" lon="1.18672">
        <ele>212</ele>
        <time>2021-06-01T17:41:34Z</time>
      </trkpt>
      <trkpt lat="44.46411" lon="1.18612">
        <ele>211</ele>
        <time>2021-06-01T17:42:09Z</time>
      </trkpt>
      <trkpt lat="44.46425" lon="1.18578">
        <ele>211</ele>
        <time>2021-06-01T17:42:31Z</time>
      </trkpt>
      <trkpt lat="44.46451" lon="1.18553">
        <ele>210</ele>
        <time>2021-06-01T17:42:56Z</time>
      </trkpt>
      <trkpt lat="44.46489" lon="1.18523">
        <ele>211</ele>
        <time>2021-06-01T17:43:31Z</time>
      </trkpt>
      <trkpt lat="44.46539" lon="1.18517">
        <ele>213</ele>
        <time>2021-06-01T17:44:12Z</time>
      </trkpt>
      <trkpt lat="44.46616" lon="1.18436">
        <ele>210</ele>
        <time>2021-06-01T17:45:29Z</time>
      </trkpt>
      <trkpt lat="44.46658" lon="1.18391">
        <ele>207</ele>
        <time>2021-06-01T17:46:11Z</time>
      </trkpt>
      <trkpt lat="44.46687" lon="1.1835">
        <ele>200</ele>
        <time>2021-06-01T17:46:44Z</time>
      </trkpt>
      <trkpt lat="44.46711" lon="1.1832">
        <ele>196</ele>
        <time>2021-06-01T17:47:10Z</time>
      </trkpt>
      <trkpt lat="44.46767" lon="1.18203">
        <ele>203</ele>
        <time>2021-06-01T17:48:30Z</time>
      </trkpt>
      <trkpt lat="44.46779" lon="1.18149">
        <ele>208</ele>
        <time>2021-06-01T17:49:03Z</time>
      </trkpt>
      <trkpt lat="44.46808" lon="1.18105">
        <ele>210</ele>
        <time>2021-06-01T17:49:37Z</time>
      </trkpt>
      <trkpt lat="44.46822" lon="1.1808">
        <ele>213</ele>
        <time>2021-06-01T17:49:55Z</time>
      </trkpt>
      <trkpt lat="44.46909" lon="1.17998">
        <ele>202</ele>
        <time>2021-06-01T17:51:19Z</time>
      </trkpt>
      <trkpt lat="44.46947" lon="1.17935">
        <ele>200</ele>
        <time>2021-06-01T17:52:06Z</time>
      </trkpt>
      <trkpt lat="44.46966" lon="1.17872">
        <ele>208</ele>
        <time>2021-06-01T17:52:45Z</time>
      </trkpt>
      <trkpt lat="44.46994" lon="1.17832">
        <ele>216</ele>
        <time>2021-06-01T17:53:17Z</time>
      </trkpt>
      <trkpt lat="44.47041" lon="1.178">
        <ele>217</ele>
        <time>2021-06-01T17:53:59Z</time>
      </trkpt>
      <trkpt lat="44.47103" lon="1.17758">
        <ele>219</ele>
        <time>2021-06-01T17:54:54Z</time>
      </trkpt>
      <trkpt lat="44.47128" lon="1.17731">
        <ele>217</ele>
        <time>2021-06-01T17:55:19Z</time>
      </trkpt>
      <trkpt lat="44.47115" lon="1.17664">
        <ele>228</ele>
        <time>2021-06-01T17:55:59Z</time>
      </trkpt>
      <trkpt lat="44.47125" lon="1.17643">
        <ele>227</ele>
        <time>2021-06-01T17:56:13Z</time>
      </trkpt>
      <trkpt lat="44.47187" lon="1.17576">
        <ele>221</ele>
        <time>2021-06-01T17:57:16Z</time>
      </trkpt>
      <trkpt lat="44.47231" lon="1.17489">
        <ele>219</ele>
        <time>2021-06-01T17:58:17Z</time>
      </trkpt>
      <trkpt lat="44.47261" lon="1.17347">
        <ele>210</ele>
        <time>2021-06-01T17:59:42Z</time>
      </trkpt>
      <trkpt lat="44.47291" lon="1.17248">
        <ele>211</ele>
        <time>2021-06-01T18:00:43Z</time>
      </trkpt>
      <trkpt lat="44.47349" lon="1.17053">
        <ele>202</ele>
        <time>2021-06-01T18:02:44Z</time>
      </trkpt>
      <trkpt lat="44.47351" lon="1.1698">
        <ele>203</ele>
        <time>2021-06-01T18:03:26Z</time>
      </trkpt>
      <trkpt lat="44.47344" lon="1.16915">
        <ele>207</ele>
        <time>2021-06-01T18:04:03Z</time>
      </trkpt>
      <trkpt lat="44.47367" lon="1.16854">
        <ele>211</ele>
        <time>2021-06-01T18:04:43Z</time>
      </trkpt>
      <trkpt lat="44.47409" lon="1.16799">
        <ele>215</ele>
        <time>2021-06-01T18:05:29Z</time>
      </trkpt>
      <trkpt lat="44.47433" lon="1.16755">
        <ele>213</ele>
        <time>2021-06-01T18:06:00Z</time>
      </trkpt>
      <trkpt lat="44.47438" lon="1.16697">
        <ele>208</ele>
        <time>2021-06-01T18:06:34Z</time>
      </trkpt>
      <trkpt lat="44.47455" lon="1.16589">
        <ele>201</ele>
        <time>2021-06-01T18:07:37Z</time>
      </trkpt>
      <trkpt lat="44.47469" lon="1.16525">
        <ele>202</ele>
        <time>2021-06-01T18:08:15Z</time>
      </trkpt>
      <trkpt lat="44.47448" lon="1.1646">
        <ele>209</ele>
        <time>2021-06-01T18:08:56Z</time>
      </trkpt>
      <trkpt lat="44.47453" lon="1.16385">
        <ele>213</ele>
        <time>2021-06-01T18:09:39Z</time>
      </trkpt>
      <trkpt lat="44.47497" lon="1.16262">
        <ele>209</ele>
        <time>2021-06-01T18:10:57Z</time>
      </trkpt>
      <trkpt lat="44.47525" lon="1.16126">
        <ele>201</ele>
        <time>2021-06-01T18:12:18Z</time>
      </trkpt>
      <trkpt lat="44.47557" lon="1.16066">
        <ele>193</ele>
        <time>2021-06-01T18:13:01Z</time>
      </trkpt>
      <trkpt lat="44.47659" lon="1.15926">
        <ele>173</ele>
        <time>2021-06-01T18:14:55Z</time>
      </trkpt>
      <trkpt lat="44.47739" lon="1.15775">
        <ele>147</ele>
        <time>2021-06-01T18:16:43Z</time>
      </trkpt>
      <trkpt lat="44.47744" lon="1.15744">
        <ele>145</ele>
        <time>2021-06-01T18:17:01Z</time>
      </trkpt>
      <trkpt lat="44.4772" lon="1.15714">
        <ele>143</ele>
        <time>2021-06-01T18:17:27Z</time>
      </trkpt>
      <trkpt lat="44.47685" lon="1.15706">
        <ele>147</ele>
        <time>2021-06-01T18:17:55Z</time>
      </trkpt>
      <trkpt lat="44.47668" lon="1.15716">
        <ele>151</ele>
        <time>2021-06-01T18:18:10Z</time>
      </trkpt>
      <trkpt lat="44.47634" lon="1.15771">
        <ele>159</ele>
        <time>2021-06-01T18:18:52Z</time>
      </trkpt>
      <trkpt lat="44.47626" lon="1.15714">
        <ele>152</ele>
        <time>2021-06-01T18:19:25Z</time>
      </trkpt>
      <trkpt lat="44.47622" lon="1.1567">
        <ele>147</ele>
        <time>2021-06-01T18:19:50Z</time>
      </trkpt>
      <trkpt lat="44.47572" lon="1.15613">
        <ele>143</ele>
        <time>2021-06-01T18:20:42Z</time>
      </trkpt>
      <trkpt lat="44.47579" lon="1.15595">
        <ele>141</ele>
        <time>2021-06-01T18:20:53Z</time>
      </trkpt>
      <trkpt lat="44.47634" lon="1.15548">
        <ele>126</ele>
        <time>2021-06-01T18:21:45Z</time>
      </trkpt>
      <trkpt lat="44.47635" lon="1.15529">
        <ele>122</ele>
        <time>2021-06-01T18:21:56Z</time>
      </trkpt>
      <trkpt lat="44.47634" lon="1.15517">
        <ele>120</ele>
        <time>2021-06-01T18:22:03Z</time>
      </trkpt>
      <trkpt lat="44.47617" lon="1.15451">
        <ele>113</ele>
        <time>2021-06-01T18:22:43Z</time>
      </trkpt>
      <trkpt lat="44.47593" lon="1.15395">
        <ele>109</ele>
        <time>2021-06-01T18:23:20Z</time>
      </trkpt>
      <trkpt lat="44.47576" lon="1.15359">
        <ele>106</ele>
        <time>2021-06-01T18:23:45Z</time>
      </trkpt>
      <trkpt lat="44.47555" lon="1.15352">
        <ele>105</ele>
        <time>2021-06-01T18:24:02Z</time>
      </trkpt>
      <trkpt lat="44.47541" lon="1.15329">
        <ele>103</ele>
        <time>2021-06-01T18:24:19Z</time>
      </trkpt>
      <trkpt lat="44.47554" lon="1.15299">
        <ele>99</ele>
        <time>2021-06-01T18:24:39Z</time>
      </trkpt>
      <trkpt lat="44.47498" lon="1.15271">
        <ele>98</ele>
        <time>2021-06-01T18:25:27Z</time>
      </trkpt>
      <trkpt lat="44.47456" lon="1.15296">
        <ele>97</ele>
        <time>2021-06-01T18:26:04Z</time>
      </trkpt>
      <trkpt lat="44.47408" lon="1.15295">
        <ele>95</ele>
        <time>2021-06-01T18:26:42Z</time>
      </trkpt>
      <trkpt lat="44.47382" lon="1.15284">
        <ele>94</ele>
        <time>2021-06-01T18:27:04Z</time>
      </trkpt>
      <trkpt lat="44.47368" lon="1.15297">
        <ele>95</ele>
        <time>2021-06-01T18:27:17Z</time>
      </trkpt>
      <trkpt lat="44.47347" lon="1.15331">
        <ele>98</ele>
        <time>2021-06-01T18:27:43Z</time>
      </trkpt>
      <trkpt lat="44.4732" lon="1.15353">
        <ele>100</ele>
        <time>2021-06-01T18:28:08Z</time>
      </trkpt>
      <trkpt lat="44.47177" lon="1.15472">
        <ele>120</ele>
        <time>2021-06-01T18:30:21Z</time>
      </trkpt>
      <trkpt lat="44.4711" lon="1.15511">
        <ele>129</ele>
        <time>2021-06-01T18:31:19Z</time>
      </trkpt>
      <trkpt lat="44.47039" lon="1.15558">
        <ele>141</ele>
        <time>2021-06-01T18:32:22Z</time>
      </trkpt>
      <trkpt lat="44.46957" lon="1.15616">
        <ele>154</ele>
        <time>2021-06-01T18:33:36Z</time>
      </trkpt>
      <trkpt lat="44.46903" lon="1.15642">
        <ele>162</ele>
        <time>2021-06-01T18:34:21Z</time>
      </trkpt>
      <trkpt lat="44.46845" lon="1.15667">
        <ele>172</ele>
        <time>2021-06-01T18:35:10Z</time>
      </trkpt>
      <trkpt lat="44.46778" lon="1.15672">
        <ele>179</ele>
        <time>2021-06-01T18:36:04Z</time>
      </trkpt>
      <trkpt lat="44.4668" lon="1.15691">
        <ele>186</ele>
        <time>2021-06-01T18:37:23Z</time>
      </trkpt>
      <trkpt lat="44.4664" lon="1.15698">
        <ele>188</ele>
        <time>2021-06-01T18:37:55Z</time>
      </trkpt>
      <trkpt lat="44.46566" lon="1.15748">
        <ele>195</ele>
        <time>2021-06-01T18:39:01Z</time>
      </trkpt>
      <trkpt lat="44.46558" lon="1.158">
        <ele>200</ele>
        <time>2021-06-01T18:39:31Z</time>
      </trkpt>
      <trkpt lat="44.46463" lon="1.15852">
        <ele>214</ele>
        <time>2021-06-01T18:40:53Z</time>
      </trkpt>
      <trkpt lat="44.46434" lon="1.15864">
        <ele>216</ele>
        <time>2021-06-01T18:41:17Z</time>
      </trkpt>
      <trkpt lat="44.46387" lon="1.15917">
        <ele>219</ele>
        <time>2021-06-01T18:42:05Z</time>
      </trkpt>
      <trkpt lat="44.46348" lon="1.15983">
        <ele>217</ele>
        <time>2021-06-01T18:42:54Z</time>
      </trkpt>
      <trkpt lat="44.46308" lon="1.1605">
        <ele>215</ele>
        <time>2021-06-01T18:43:44Z</time>
      </trkpt>
      <trkpt lat="44.46247" lon="1.16179">
        <ele>215</ele>
        <time>2021-06-01T18:45:13Z</time>
      </trkpt>
      <trkpt lat="44.46227" lon="1.16236">
        <ele>215</ele>
        <time>2021-06-01T18:45:49Z</time>
      </trkpt>
      <trkpt lat="44.46209" lon="1.1627">
        <ele>214</ele>
        <time>2021-06-01T18:46:13Z</time>
      </trkpt>
      <trkpt lat="44.46154" lon="1.16296">
        <ele>214</ele>
        <time>2021-06-01T18:47:00Z</time>
      </trkpt>
      <trkpt lat="44.46066" lon="1.16315">
        <ele>216</ele>
        <time>2021-06-01T18:48:11Z</time>
      </trkpt>
      <trkpt lat="44.46031" lon="1.16325">
        <ele>216</ele>
        <time>2021-06-01T18:48:40Z</time>
      </trkpt>
      <trkpt lat="44.45951" lon="1.16386">
        <ele>214</ele>
        <time>2021-06-01T18:49:53Z</time>
      </trkpt>
      <trkpt lat="44.45851" lon="1.16476">
        <ele>217</ele>
        <time>2021-06-01T18:51:28Z</time>
      </trkpt>
      <trkpt lat="44.45746" lon="1.16542">
        <ele>216</ele>
        <time>2021-06-01T18:53:00Z</time>
      </trkpt>
      <trkpt lat="44.45659" lon="1.16604">
        <ele>218</ele>
        <time>2021-06-01T18:54:18Z</time>
      </trkpt>
      <trkpt lat="44.45568" lon="1.167">
        <ele>225</ele>
        <time>2021-06-01T18:55:49Z</time>
      </trkpt>
      <trkpt lat="44.45467" lon="1.1675">
        <ele>232</ele>
        <time>2021-06-01T18:57:15Z</time>
      </trkpt>
      <trkpt lat="44.45385" lon="1.16819">
        <ele>234</ele>
        <time>2021-06-01T18:58:32Z</time>
      </trkpt>
      <trkpt lat="44.45214" lon="1.16978">
        <ele>225</ele>
        <time>2021-06-01T19:01:16Z</time>
      </trkpt>
      <trkpt lat="44.45149" lon="1.17009">
        <ele>225</ele>
        <time>2021-06-01T19:02:11Z</time>
      </trkpt>
      <trkpt lat="44.45062" lon="1.17005">
        <ele>225</ele>
        <time>2021-06-01T19:03:21Z</time>
      </trkpt>
      <trkpt lat="44.45023" lon="1.17052">
        <ele>226</ele>
        <time>2021-06-01T19:04:02Z</time>
      </trkpt>
      <trkpt lat="44.44883" lon="1.17075">
        <ele>228</ele>
        <time>2021-06-01T19:05:55Z</time>
      </trkpt>
      <trkpt lat="44.448" lon="1.17105">
        <ele>229</ele>
        <time>2021-06-01T19:07:03Z</time>
      </trkpt>
      <trkpt lat="44.44755" lon="1.17112">
        <ele>230</ele>
        <time>2021-06-01T19:07:40Z</time>
      </trkpt>
      <trkpt lat="44.44703" lon="1.17147">
        <ele>235</ele>
        <time>2021-06-01T19:08:26Z</time>
      </trkpt>
      <trkpt lat="44.447" lon="1.16982">
        <ele>224</ele>
        <time>2021-06-01T19:10:00Z</time>
      </trkpt>
      <trkpt lat="44.44634" lon="1.16887">
        <ele>219</ele>
        <time>2021-06-01T19:11:16Z</time>
      </trkpt>
      <trkpt lat="44.44602" lon="1.16725">
        <ele>222</ele>
        <time>2021-06-01T19:12:52Z</time>
      </trkpt>
      <trkpt lat="44.44612" lon="1.16658">
        <ele>226</ele>
        <time>2021-06-01T19:13:31Z</time>
      </trkpt>
      <trkpt lat="44.44631" lon="1.16638">
        <ele>226</ele>
        <time>2021-06-01T19:13:50Z</time>
      </trkpt>
      <trkpt lat="44.44596" lon="1.16632">
        <ele>227</ele>
        <time>2021-06-01T19:14:18Z</time>
      </trkpt>
      <trkpt lat="44.44553" lon="1.16641">
        <ele>232</ele>
        <time>2021-06-01T19:14:53Z</time>
      </trkpt>
      <trkpt lat="44.44471" lon="1.16673">
        <ele>241</ele>
        <time>2021-06-01T19:16:01Z</time>
      </trkpt>
      <trkpt lat="44.44432" lon="1.16725">
        <ele>244</ele>
        <time>2021-06-01T19:16:44Z</time>
      </trkpt>
      <trkpt lat="44.44296" lon="1.16941">
        <ele>254</ele>
        <time>2021-06-01T19:19:29Z</time>
      </trkpt>
      <trkpt lat="44.44195" lon="1.17153">
        <ele>265</ele>
        <time>2021-06-01T19:21:55Z</time>
      </trkpt>
      <trkpt lat="44.44191" lon="1.17188">
        <ele>265</ele>
        <time>2021-06-01T19:22:15Z</time>
      </trkpt>
      <trkpt lat="44.44163" lon="1.17201">
        <ele>265</ele>
        <time>2021-06-01T19:22:39Z</time>
      </trkpt>
      <trkpt lat="44.44121" lon="1.17178">
        <ele>263</ele>
        <time>2021-06-01T19:23:15Z</time>
      </trkpt>
      <trkpt lat="44.44099" lon="1.1705">
        <ele>259</ele>
        <time>2021-06-01T19:24:30Z</time>
      </trkpt>
      <trkpt lat="44.44084" lon="1.16944">
        <ele>257</ele>
        <time>2021-06-01T19:25:32Z</time>
      </trkpt>
      <trkpt lat="44.44021" lon="1.16858">
        <ele>243</ele>
        <time>2021-06-01T19:26:42Z</time>
      </trkpt>
      <trkpt lat="44.43933" lon="1.16708">
        <ele>228</ele>
        <time>2021-06-01T19:28:33Z</time>
      </trkpt>
      <trkpt lat="44.43919" lon="1.16559">
        <ele>214</ele>
        <time>2021-06-01T19:29:59Z</time>
      </trkpt>
      <trkpt lat="44.43953" lon="1.16386">
        <ele>207</ele>
        <time>2021-06-01T19:31:42Z</time>
      </trkpt>
      <trkpt lat="44.43934" lon="1.16319">
        <ele>203</ele>
        <time>2021-06-01T19:32:23Z</time>
      </trkpt>
      <trkpt lat="44.43911" lon="1.16299">
        <ele>200</ele>
        <time>2021-06-01T19:32:45Z</time>
      </trkpt>
      <trkpt lat="44.43897" lon="1.16317">
        <ele>199</ele>
        <time>2021-06-01T19:33:00Z</time>
      </trkpt>
      <trkpt lat="44.43886" lon="1.16317">
        <ele>200</ele>
        <time>2021-06-01T19:33:09Z</time>
      </trkpt>
      <trkpt lat="44.43851" lon="1.16282">
        <ele>198</ele>
        <time>2021-06-01T19:33:43Z</time>
      </trkpt>
      <trkpt lat="44.43805" lon="1.16289">
        <ele>200</ele>
        <time>2021-06-01T19:34:20Z</time>
      </trkpt>
      <trkpt lat="44.43727" lon="1.16245">
        <ele>200</ele>
        <time>2021-06-01T19:35:27Z</time>
      </trkpt>
      <trkpt lat="44.43697" lon="1.16202">
        <ele>198</ele>
        <time>2021-06-01T19:36:02Z</time>
      </trkpt>
      <trkpt lat="44.43674" lon="1.16197">
        <ele>198</ele>
        <time>2021-06-01T19:36:20Z</time>
      </trkpt>
      <trkpt lat="44.43615" lon="1.16268">
        <ele>198</ele>
        <time>2021-06-01T19:37:23Z</time>
      </trkpt>
      <trkpt lat="44.43524" lon="1.16396">
        <ele>200</ele>
        <time>2021-06-01T19:39:06Z</time>
      </trkpt>
      <trkpt lat="44.43505" lon="1.16395">
        <ele>198</ele>
        <time>2021-06-01T19:39:21Z</time>
      </trkpt>
      <trkpt lat="44.43504" lon="1.16347">
        <ele>197</ele>
        <time>2021-06-01T19:39:49Z</time>
      </trkpt>
      <trkpt lat="44.43468" lon="1.16258">
        <ele>203</ele>
        <time>2021-06-01T19:40:47Z</time>
      </trkpt>
      <trkpt lat="44.43442" lon="1.16212">
        <ele>209</ele>
        <time>2021-06-01T19:41:21Z</time>
      </trkpt>
      <trkpt lat="44.4341" lon="1.16146">
        <ele>215</ele>
        <time>2021-06-01T19:42:06Z</time>
      </trkpt>
      <trkpt lat="44.43344" lon="1.16092">
        <ele>220</ele>
        <time>2021-06-01T19:43:07Z</time>
      </trkpt>
      <trkpt lat="44.43315" lon="1.16033">
        <ele>219</ele>
        <time>2021-06-01T19:43:48Z</time>
      </trkpt>
      <trkpt lat="44.43271" lon="1.16027">
        <ele>220</ele>
        <time>2021-06-01T19:44:24Z</time>
      </trkpt>
      <trkpt lat="44.43265" lon="1.15973">
        <ele>217</ele>
        <time>2021-06-01T19:44:55Z</time>
      </trkpt>
      <trkpt lat="44.43288" lon="1.15803">
        <ele>210</ele>
        <time>2021-06-01T19:46:34Z</time>
      </trkpt>
      <trkpt lat="44.433" lon="1.15771">
        <ele>209</ele>
        <time>2021-06-01T19:46:55Z</time>
      </trkpt>
      <trkpt lat="44.43272" lon="1.15759">
        <ele>206</ele>
        <time>2021-06-01T19:47:18Z</time>
      </trkpt>
      <trkpt lat="44.43059" lon="1.15581">
        <ele>177</ele>
        <time>2021-06-01T19:50:37Z</time>
      </trkpt>
      <trkpt lat="44.43053" lon="1.15568">
        <ele>176</ele>
        <time>2021-06-01T19:50:46Z</time>
      </trkpt>
      <trkpt lat="44.43054" lon="1.15534">
        <ele>175</ele>
        <time>2021-06-01T19:51:05Z</time>
      </trkpt>
      <trkpt lat="44.4304" lon="1.1551">
        <ele>174</ele>
        <time>2021-06-01T19:51:23Z</time>
      </trkpt>
      <trkpt lat="44.43008" lon="1.15413">
        <ele>169</ele>
        <time>2021-06-01T19:52:24Z</time>
      </trkpt>
      <trkpt lat="44.42973" lon="1.15351">
        <ele>169</ele>
        <time>2021-06-01T19:53:09Z</time>
      </trkpt>
      <trkpt lat="44.4298" lon="1.153">
        <ele>168</ele>
        <time>2021-06-01T19:53:39Z</time>
      </trkpt>
      <trkpt lat="44.43015" lon="1.15196">
        <ele>168</ele>
        <time>2021-06-01T19:54:44Z</time>
      </trkpt>
      <trkpt lat="44.43127" lon="1.15027">
        <ele>165</ele>
        <time>2021-06-01T19:56:56Z</time>
      </trkpt>
      <trkpt lat="44.43229" lon="1.14828">
        <ele>164</ele>
        <time>2021-06-01T19:59:16Z</time>
      </trkpt>
      <trkpt lat="44.43312" lon="1.14555">
        <ele>153</ele>
        <time>2021-06-01T20:02:06Z</time>
      </trkpt>
      <trkpt lat="44.43327" lon="1.14523">
        <ele>151</ele>
        <time>2021-06-01T20:02:28Z</time>
      </trkpt>
      <trkpt lat="44.43306" lon="1.14491">
        <ele>154</ele>
        <time>2021-06-01T20:02:53Z</time>
      </trkpt>
      <trkpt lat="44.43326" lon="1.14456">
        <ele>155</ele>
        <time>2021-06-01T20:03:18Z</time>
      </trkpt>
      <trkpt lat="44.43395" lon="1.14272">
        <ele>167</ele>
        <time>2021-06-01T20:05:17Z</time>
      </trkpt>
      <trkpt lat="44.43118" lon="1.14259">
        <ele>198</ele>
        <time>2021-06-01T20:08:59Z</time>
      </trkpt>
      <trkpt lat="44.43009" lon="1.14289">
        <ele>197</ele>
        <time>2021-06-01T20:10:28Z</time>
      </trkpt>
      <trkpt lat="44.42923" lon="1.14323">
        <ele>194</ele>
        <time>2021-06-01T20:11:40Z</time>
      </trkpt>
      <trkpt lat="44.42773" lon="1.14385">
        <ele>189</ele>
        <time>2021-06-01T20:13:45Z</time>
      </trkpt>
      <trkpt lat="44.42583" lon="1.14456">
        <ele>178</ele>
        <time>2021-06-01T20:16:22Z</time>
      </trkpt>
      <trkpt lat="44.42472" lon="1.14525">
        <ele>169</ele>
        <time>2021-06-01T20:17:59Z</time>
      </trkpt>
      <trkpt lat="44.424" lon="1.14553">
        <ele>160</ele>
        <time>2021-06-01T20:18:59Z</time>
      </trkpt>
      <trkpt lat="44.42293" lon="1.14576">
        <ele>149</ele>
        <time>2021-06-01T20:20:26Z</time>
      </trkpt>
      <trkpt lat="44.42244" lon="1.14632">
        <ele>148</ele>
        <time>2021-06-01T20:21:17Z</time>
      </trkpt>
      <trkpt lat="44.42184" lon="1.14744">
        <ele>149</ele>
        <time>2021-06-01T20:22:37Z</time>
      </trkpt>
      <trkpt lat="44.42045" lon="1.14735">
        <ele>150</ele>
        <time>2021-06-01T20:24:28Z</time>
      </trkpt>
      <trkpt lat="44.41929" lon="1.14707">
        <ele>152</ele>
        <time>2021-06-01T20:26:02Z</time>
      </trkpt>
      <trkpt lat="44.41934" lon="1.14608">
        <ele>151</ele>
        <time>2021-06-01T20:26:59Z</time>
      </trkpt>
      <trkpt lat="44.41928" lon="1.14456">
        <ele>150</ele>
        <time>2021-06-01T20:28:26Z</time>
      </trkpt>
      <trkpt lat="44.41944" lon="1.14416">
        <ele>150</ele>
        <time>2021-06-01T20:28:52Z</time>
      </trkpt>
    </trkseg>
  </trk>
  <trk>
    <name><![CDATA[46 - Porte-du-Quercy : le Boulvé ouest - Grand parcours 2017]]></name>
    <extensions>
      <line xmlns="http://www.topografix.com/GPX/gpx_style/0/2">
        <color>800080</color>
        <opacity>0.9</opacity>
        <width>5</width>
      </line>
    </extensions>
    <trkseg>
      <trkpt lat="44.41935" lon="1.14433">
        <ele>150</ele>
        <time>2021-06-01T14:59:44Z</time>
      </trkpt>
      <trkpt lat="44.41966" lon="1.14378">
        <ele>150</ele>
        <time>2021-06-01T15:00:24Z</time>
      </trkpt>
      <trkpt lat="44.41979" lon="1.1436">
        <ele>150</ele>
        <time>2021-06-01T15:00:39Z</time>
      </trkpt>
      <trkpt lat="44.42004" lon="1.14348">
        <ele>151</ele>
        <time>2021-06-01T15:01:00Z</time>
      </trkpt>
      <trkpt lat="44.42066" lon="1.14364">
        <ele>149</ele>
        <time>2021-06-01T15:01:50Z</time>
      </trkpt>
      <trkpt lat="44.42133" lon="1.14361">
        <ele>147</ele>
        <time>2021-06-01T15:02:44Z</time>
      </trkpt>
      <trkpt lat="44.42205" lon="1.14314">
        <ele>146</ele>
        <time>2021-06-01T15:03:48Z</time>
      </trkpt>
      <trkpt lat="44.4225" lon="1.14281">
        <ele>146</ele>
        <time>2021-06-01T15:04:28Z</time>
      </trkpt>
      <trkpt lat="44.42258" lon="1.14199">
        <ele>150</ele>
        <time>2021-06-01T15:05:16Z</time>
      </trkpt>
      <trkpt lat="44.42305" lon="1.14156">
        <ele>153</ele>
        <time>2021-06-01T15:06:01Z</time>
      </trkpt>
      <trkpt lat="44.42341" lon="1.14135">
        <ele>155</ele>
        <time>2021-06-01T15:06:32Z</time>
      </trkpt>
      <trkpt lat="44.42389" lon="1.1412">
        <ele>154</ele>
        <time>2021-06-01T15:07:11Z</time>
      </trkpt>
      <trkpt lat="44.42522" lon="1.14119">
        <ele>150</ele>
        <time>2021-06-01T15:08:58Z</time>
      </trkpt>
      <trkpt lat="44.4263" lon="1.14091">
        <ele>147</ele>
        <time>2021-06-01T15:10:26Z</time>
      </trkpt>
      <trkpt lat="44.42787" lon="1.14053">
        <ele>142</ele>
        <time>2021-06-01T15:12:33Z</time>
      </trkpt>
      <trkpt lat="44.4286" lon="1.1395">
        <ele>142</ele>
        <time>2021-06-01T15:13:56Z</time>
      </trkpt>
      <trkpt lat="44.42908" lon="1.13871">
        <ele>143</ele>
        <time>2021-06-01T15:14:55Z</time>
      </trkpt>
      <trkpt lat="44.43006" lon="1.13768">
        <ele>144</ele>
        <time>2021-06-01T15:16:34Z</time>
      </trkpt>
      <trkpt lat="44.43055" lon="1.13747">
        <ele>140</ele>
        <time>2021-06-01T15:17:15Z</time>
      </trkpt>
      <trkpt lat="44.43113" lon="1.13723">
        <ele>138</ele>
        <time>2021-06-01T15:18:03Z</time>
      </trkpt>
      <trkpt lat="44.43195" lon="1.13593">
        <ele>141</ele>
        <time>2021-06-01T15:19:42Z</time>
      </trkpt>
      <trkpt lat="44.43243" lon="1.13554">
        <ele>140</ele>
        <time>2021-06-01T15:20:27Z</time>
      </trkpt>
      <trkpt lat="44.43331" lon="1.13518">
        <ele>138</ele>
        <time>2021-06-01T15:21:40Z</time>
      </trkpt>
      <trkpt lat="44.43399" lon="1.13493">
        <ele>135</ele>
        <time>2021-06-01T15:22:36Z</time>
      </trkpt>
      <trkpt lat="44.43442" lon="1.13448">
        <ele>133</ele>
        <time>2021-06-01T15:23:19Z</time>
      </trkpt>
      <trkpt lat="44.43483" lon="1.13462">
        <ele>131</ele>
        <time>2021-06-01T15:23:53Z</time>
      </trkpt>
      <trkpt lat="44.43506" lon="1.13401">
        <ele>130</ele>
        <time>2021-06-01T15:24:33Z</time>
      </trkpt>
      <trkpt lat="44.43531" lon="1.13319">
        <ele>134</ele>
        <time>2021-06-01T15:25:24Z</time>
      </trkpt>
      <trkpt lat="44.43546" lon="1.133">
        <ele>136</ele>
        <time>2021-06-01T15:25:40Z</time>
      </trkpt>
      <trkpt lat="44.43634" lon="1.13339">
        <ele>134</ele>
        <time>2021-06-01T15:26:54Z</time>
      </trkpt>
      <trkpt lat="44.43766" lon="1.1336">
        <ele>136</ele>
        <time>2021-06-01T15:28:40Z</time>
      </trkpt>
      <trkpt lat="44.43834" lon="1.13375">
        <ele>134</ele>
        <time>2021-06-01T15:29:35Z</time>
      </trkpt>
      <trkpt lat="44.43986" lon="1.13581">
        <ele>138</ele>
        <time>2021-06-01T15:32:24Z</time>
      </trkpt>
      <trkpt lat="44.44091" lon="1.13724">
        <ele>132</ele>
        <time>2021-06-01T15:34:22Z</time>
      </trkpt>
      <trkpt lat="44.44107" lon="1.1371">
        <ele>134</ele>
        <time>2021-06-01T15:34:37Z</time>
      </trkpt>
      <trkpt lat="44.44105" lon="1.13693">
        <ele>135</ele>
        <time>2021-06-01T15:34:47Z</time>
      </trkpt>
      <trkpt lat="44.44137" lon="1.13636">
        <ele>141</ele>
        <time>2021-06-01T15:35:28Z</time>
      </trkpt>
      <trkpt lat="44.44165" lon="1.13514">
        <ele>154</ele>
        <time>2021-06-01T15:36:41Z</time>
      </trkpt>
      <trkpt lat="44.44194" lon="1.13455">
        <ele>155</ele>
        <time>2021-06-01T15:37:22Z</time>
      </trkpt>
      <trkpt lat="44.44208" lon="1.13414">
        <ele>156</ele>
        <time>2021-06-01T15:37:48Z</time>
      </trkpt>
      <trkpt lat="44.44205" lon="1.13294">
        <ele>160</ele>
        <time>2021-06-01T15:38:57Z</time>
      </trkpt>
      <trkpt lat="44.44197" lon="1.13242">
        <ele>162</ele>
        <time>2021-06-01T15:39:27Z</time>
      </trkpt>
      <trkpt lat="44.44204" lon="1.13161">
        <ele>165</ele>
        <time>2021-06-01T15:40:14Z</time>
      </trkpt>
      <trkpt lat="44.44198" lon="1.13118">
        <ele>168</ele>
        <time>2021-06-01T15:40:39Z</time>
      </trkpt>
      <trkpt lat="44.44179" lon="1.13168">
        <ele>166</ele>
        <time>2021-06-01T15:41:11Z</time>
      </trkpt>
      <trkpt lat="44.44159" lon="1.13201">
        <ele>167</ele>
        <time>2021-06-01T15:41:36Z</time>
      </trkpt>
      <trkpt lat="44.44156" lon="1.13188">
        <ele>167</ele>
        <time>2021-06-01T15:41:44Z</time>
      </trkpt>
      <trkpt lat="44.44155" lon="1.1313">
        <ele>170</ele>
        <time>2021-06-01T15:42:17Z</time>
      </trkpt>
      <trkpt lat="44.44145" lon="1.13137">
        <ele>172</ele>
        <time>2021-06-01T15:42:26Z</time>
      </trkpt>
      <trkpt lat="44.44124" lon="1.13205">
        <ele>172</ele>
        <time>2021-06-01T15:43:08Z</time>
      </trkpt>
      <trkpt lat="44.44105" lon="1.13203">
        <ele>175</ele>
        <time>2021-06-01T15:43:24Z</time>
      </trkpt>
      <trkpt lat="44.44112" lon="1.13162">
        <ele>175</ele>
        <time>2021-06-01T15:43:48Z</time>
      </trkpt>
      <trkpt lat="44.44093" lon="1.13072">
        <ele>184</ele>
        <time>2021-06-01T15:44:41Z</time>
      </trkpt>
      <trkpt lat="44.44069" lon="1.12969">
        <ele>194</ele>
        <time>2021-06-01T15:45:43Z</time>
      </trkpt>
      <trkpt lat="44.44051" lon="1.12899">
        <ele>197</ele>
        <time>2021-06-01T15:46:26Z</time>
      </trkpt>
      <trkpt lat="44.4404" lon="1.12691">
        <ele>201</ele>
        <time>2021-06-01T15:48:25Z</time>
      </trkpt>
      <trkpt lat="44.44012" lon="1.12478">
        <ele>211</ele>
        <time>2021-06-01T15:50:29Z</time>
      </trkpt>
      <trkpt lat="44.44011" lon="1.12418">
        <ele>213</ele>
        <time>2021-06-01T15:51:03Z</time>
      </trkpt>
      <trkpt lat="44.43989" lon="1.12348">
        <ele>220</ele>
        <time>2021-06-01T15:51:47Z</time>
      </trkpt>
      <trkpt lat="44.44074" lon="1.12222">
        <ele>230</ele>
        <time>2021-06-01T15:53:26Z</time>
      </trkpt>
      <trkpt lat="44.43946" lon="1.12245">
        <ele>232</ele>
        <time>2021-06-01T15:55:09Z</time>
      </trkpt>
      <trkpt lat="44.43989" lon="1.1216">
        <ele>237</ele>
        <time>2021-06-01T15:56:09Z</time>
      </trkpt>
      <trkpt lat="44.44087" lon="1.12007">
        <ele>245</ele>
        <time>2021-06-01T15:58:06Z</time>
      </trkpt>
      <trkpt lat="44.44098" lon="1.11956">
        <ele>247</ele>
        <time>2021-06-01T15:58:37Z</time>
      </trkpt>
      <trkpt lat="44.44103" lon="1.11831">
        <ele>252</ele>
        <time>2021-06-01T15:59:49Z</time>
      </trkpt>
      <trkpt lat="44.44149" lon="1.11768">
        <ele>256</ele>
        <time>2021-06-01T16:00:40Z</time>
      </trkpt>
      <trkpt lat="44.44263" lon="1.11695">
        <ele>255</ele>
        <time>2021-06-01T16:02:20Z</time>
      </trkpt>
      <trkpt lat="44.44389" lon="1.11676">
        <ele>252</ele>
        <time>2021-06-01T16:04:02Z</time>
      </trkpt>
      <trkpt lat="44.44435" lon="1.11611">
        <ele>250</ele>
        <time>2021-06-01T16:04:54Z</time>
      </trkpt>
      <trkpt lat="44.44507" lon="1.11489">
        <ele>248</ele>
        <time>2021-06-01T16:06:25Z</time>
      </trkpt>
      <trkpt lat="44.44441" lon="1.11329">
        <ele>254</ele>
        <time>2021-06-01T16:08:10Z</time>
      </trkpt>
      <trkpt lat="44.44435" lon="1.11238">
        <ele>255</ele>
        <time>2021-06-01T16:09:03Z</time>
      </trkpt>
      <trkpt lat="44.44452" lon="1.11135">
        <ele>254</ele>
        <time>2021-06-01T16:10:03Z</time>
      </trkpt>
      <trkpt lat="44.44437" lon="1.11032">
        <ele>253</ele>
        <time>2021-06-01T16:11:03Z</time>
      </trkpt>
      <trkpt lat="44.4435" lon="1.11034">
        <ele>256</ele>
        <time>2021-06-01T16:12:13Z</time>
      </trkpt>
      <trkpt lat="44.44282" lon="1.10991">
        <ele>257</ele>
        <time>2021-06-01T16:13:12Z</time>
      </trkpt>
      <trkpt lat="44.44245" lon="1.10905">
        <ele>259</ele>
        <time>2021-06-01T16:14:10Z</time>
      </trkpt>
      <trkpt lat="44.44169" lon="1.10863">
        <ele>260</ele>
        <time>2021-06-01T16:15:15Z</time>
      </trkpt>
      <trkpt lat="44.44093" lon="1.10852">
        <ele>261</ele>
        <time>2021-06-01T16:16:16Z</time>
      </trkpt>
      <trkpt lat="44.43963" lon="1.10832">
        <ele>263</ele>
        <time>2021-06-01T16:18:01Z</time>
      </trkpt>
      <trkpt lat="44.4384" lon="1.10838">
        <ele>264</ele>
        <time>2021-06-01T16:19:40Z</time>
      </trkpt>
      <trkpt lat="44.43682" lon="1.1075">
        <ele>262</ele>
        <time>2021-06-01T16:21:56Z</time>
      </trkpt>
      <trkpt lat="44.43616" lon="1.10515">
        <ele>254</ele>
        <time>2021-06-01T16:24:20Z</time>
      </trkpt>
      <trkpt lat="44.43575" lon="1.10462">
        <ele>256</ele>
        <time>2021-06-01T16:25:05Z</time>
      </trkpt>
      <trkpt lat="44.43655" lon="1.10383">
        <ele>254</ele>
        <time>2021-06-01T16:26:23Z</time>
      </trkpt>
      <trkpt lat="44.43813" lon="1.10306">
        <ele>252</ele>
        <time>2021-06-01T16:28:37Z</time>
      </trkpt>
      <trkpt lat="44.43841" lon="1.10234">
        <ele>248</ele>
        <time>2021-06-01T16:29:24Z</time>
      </trkpt>
      <trkpt lat="44.44006" lon="1.10076">
        <ele>248</ele>
        <time>2021-06-01T16:32:04Z</time>
      </trkpt>
      <trkpt lat="44.44045" lon="1.09938">
        <ele>245</ele>
        <time>2021-06-01T16:33:29Z</time>
      </trkpt>
      <trkpt lat="44.44107" lon="1.09854">
        <ele>243</ele>
        <time>2021-06-01T16:34:38Z</time>
      </trkpt>
      <trkpt lat="44.44157" lon="1.09769">
        <ele>239</ele>
        <time>2021-06-01T16:35:41Z</time>
      </trkpt>
      <trkpt lat="44.44216" lon="1.09687">
        <ele>237</ele>
        <time>2021-06-01T16:36:48Z</time>
      </trkpt>
      <trkpt lat="44.44359" lon="1.09536">
        <ele>234</ele>
        <time>2021-06-01T16:39:11Z</time>
      </trkpt>
      <trkpt lat="44.44422" lon="1.09467">
        <ele>232</ele>
        <time>2021-06-01T16:40:15Z</time>
      </trkpt>
      <trkpt lat="44.44497" lon="1.09436">
        <ele>230</ele>
        <time>2021-06-01T16:41:18Z</time>
      </trkpt>
      <trkpt lat="44.44534" lon="1.09308">
        <ele>230</ele>
        <time>2021-06-01T16:42:37Z</time>
      </trkpt>
      <trkpt lat="44.44565" lon="1.09225">
        <ele>233</ele>
        <time>2021-06-01T16:43:30Z</time>
      </trkpt>
      <trkpt lat="44.44562" lon="1.09153">
        <ele>237</ele>
        <time>2021-06-01T16:44:11Z</time>
      </trkpt>
      <trkpt lat="44.44578" lon="1.09005">
        <ele>236</ele>
        <time>2021-06-01T16:45:37Z</time>
      </trkpt>
      <trkpt lat="44.44565" lon="1.08835">
        <ele>230</ele>
        <time>2021-06-01T16:47:15Z</time>
      </trkpt>
      <trkpt lat="44.44476" lon="1.08683">
        <ele>223</ele>
        <time>2021-06-01T16:49:07Z</time>
      </trkpt>
      <trkpt lat="44.44294" lon="1.08655">
        <ele>227</ele>
        <time>2021-06-01T16:51:34Z</time>
      </trkpt>
      <trkpt lat="44.44031" lon="1.08501">
        <ele>229</ele>
        <time>2021-06-01T16:55:22Z</time>
      </trkpt>
      <trkpt lat="44.43911" lon="1.08501">
        <ele>229</ele>
        <time>2021-06-01T16:56:58Z</time>
      </trkpt>
      <trkpt lat="44.4358" lon="1.08677">
        <ele>236</ele>
        <time>2021-06-01T17:01:41Z</time>
      </trkpt>
      <trkpt lat="44.43449" lon="1.08716">
        <ele>241</ele>
        <time>2021-06-01T17:03:29Z</time>
      </trkpt>
      <trkpt lat="44.43098" lon="1.08819">
        <ele>241</ele>
        <time>2021-06-01T17:08:16Z</time>
      </trkpt>
      <trkpt lat="44.42974" lon="1.08801">
        <ele>244</ele>
        <time>2021-06-01T17:09:56Z</time>
      </trkpt>
      <trkpt lat="44.42877" lon="1.08877">
        <ele>245</ele>
        <time>2021-06-01T17:11:25Z</time>
      </trkpt>
      <trkpt lat="44.4282" lon="1.08944">
        <ele>246</ele>
        <time>2021-06-01T17:12:24Z</time>
      </trkpt>
      <trkpt lat="44.42705" lon="1.0898">
        <ele>246</ele>
        <time>2021-06-01T17:13:58Z</time>
      </trkpt>
      <trkpt lat="44.42606" lon="1.09094">
        <ele>248</ele>
        <time>2021-06-01T17:15:41Z</time>
      </trkpt>
      <trkpt lat="44.42524" lon="1.09182">
        <ele>249</ele>
        <time>2021-06-01T17:17:04Z</time>
      </trkpt>
      <trkpt lat="44.42505" lon="1.09235">
        <ele>250</ele>
        <time>2021-06-01T17:17:38Z</time>
      </trkpt>
      <trkpt lat="44.42457" lon="1.09287">
        <ele>250</ele>
        <time>2021-06-01T17:18:26Z</time>
      </trkpt>
      <trkpt lat="44.42284" lon="1.09394">
        <ele>251</ele>
        <time>2021-06-01T17:20:58Z</time>
      </trkpt>
      <trkpt lat="44.42132" lon="1.09521">
        <ele>257</ele>
        <time>2021-06-01T17:23:19Z</time>
      </trkpt>
      <trkpt lat="44.42069" lon="1.09598">
        <ele>263</ele>
        <time>2021-06-01T17:24:26Z</time>
      </trkpt>
      <trkpt lat="44.42031" lon="1.09622">
        <ele>265</ele>
        <time>2021-06-01T17:25:00Z</time>
      </trkpt>
      <trkpt lat="44.41815" lon="1.09944">
        <ele>258</ele>
        <time>2021-06-01T17:29:12Z</time>
      </trkpt>
      <trkpt lat="44.41677" lon="1.09899">
        <ele>245</ele>
        <time>2021-06-01T17:31:06Z</time>
      </trkpt>
      <trkpt lat="44.41709" lon="1.09991">
        <ele>245</ele>
        <time>2021-06-01T17:32:04Z</time>
      </trkpt>
      <trkpt lat="44.41732" lon="1.1009">
        <ele>246</ele>
        <time>2021-06-01T17:33:04Z</time>
      </trkpt>
      <trkpt lat="44.41769" lon="1.10164">
        <ele>244</ele>
        <time>2021-06-01T17:33:56Z</time>
      </trkpt>
      <trkpt lat="44.41727" lon="1.10242">
        <ele>229</ele>
        <time>2021-06-01T17:34:51Z</time>
      </trkpt>
      <trkpt lat="44.41746" lon="1.10259">
        <ele>230</ele>
        <time>2021-06-01T17:35:10Z</time>
      </trkpt>
      <trkpt lat="44.41775" lon="1.1022">
        <ele>233</ele>
        <time>2021-06-01T17:35:42Z</time>
      </trkpt>
      <trkpt lat="44.41985" lon="1.10192">
        <ele>229</ele>
        <time>2021-06-01T17:38:31Z</time>
      </trkpt>
      <trkpt lat="44.42019" lon="1.10222">
        <ele>228</ele>
        <time>2021-06-01T17:39:03Z</time>
      </trkpt>
      <trkpt lat="44.42034" lon="1.103">
        <ele>221</ele>
        <time>2021-06-01T17:39:49Z</time>
      </trkpt>
      <trkpt lat="44.42045" lon="1.10344">
        <ele>222</ele>
        <time>2021-06-01T17:40:16Z</time>
      </trkpt>
      <trkpt lat="44.42042" lon="1.10382">
        <ele>223</ele>
        <time>2021-06-01T17:40:38Z</time>
      </trkpt>
      <trkpt lat="44.42017" lon="1.10389">
        <ele>215</ele>
        <time>2021-06-01T17:40:58Z</time>
      </trkpt>
      <trkpt lat="44.42015" lon="1.1041">
        <ele>215</ele>
        <time>2021-06-01T17:41:10Z</time>
      </trkpt>
      <trkpt lat="44.42002" lon="1.1042">
        <ele>212</ele>
        <time>2021-06-01T17:41:22Z</time>
      </trkpt>
      <trkpt lat="44.41969" lon="1.1042">
        <ele>205</ele>
        <time>2021-06-01T17:41:48Z</time>
      </trkpt>
      <trkpt lat="44.41936" lon="1.10436">
        <ele>200</ele>
        <time>2021-06-01T17:42:16Z</time>
      </trkpt>
      <trkpt lat="44.41875" lon="1.10527">
        <ele>195</ele>
        <time>2021-06-01T17:43:28Z</time>
      </trkpt>
      <trkpt lat="44.41846" lon="1.10647">
        <ele>187</ele>
        <time>2021-06-01T17:44:40Z</time>
      </trkpt>
      <trkpt lat="44.41842" lon="1.10693">
        <ele>185</ele>
        <time>2021-06-01T17:45:07Z</time>
      </trkpt>
      <trkpt lat="44.41836" lon="1.1072">
        <ele>183</ele>
        <time>2021-06-01T17:45:23Z</time>
      </trkpt>
      <trkpt lat="44.4182" lon="1.10737">
        <ele>181</ele>
        <time>2021-06-01T17:45:39Z</time>
      </trkpt>
      <trkpt lat="44.41826" lon="1.10768">
        <ele>180</ele>
        <time>2021-06-01T17:45:57Z</time>
      </trkpt>
      <trkpt lat="44.41828" lon="1.10845">
        <ele>179</ele>
        <time>2021-06-01T17:46:41Z</time>
      </trkpt>
      <trkpt lat="44.41836" lon="1.10928">
        <ele>177</ele>
        <time>2021-06-01T17:47:29Z</time>
      </trkpt>
      <trkpt lat="44.4185" lon="1.10974">
        <ele>177</ele>
        <time>2021-06-01T17:47:58Z</time>
      </trkpt>
      <trkpt lat="44.41873" lon="1.11037">
        <ele>176</ele>
        <time>2021-06-01T17:48:38Z</time>
      </trkpt>
      <trkpt lat="44.41899" lon="1.11072">
        <ele>175</ele>
        <time>2021-06-01T17:49:07Z</time>
      </trkpt>
      <trkpt lat="44.41931" lon="1.11097">
        <ele>174</ele>
        <time>2021-06-01T17:49:36Z</time>
      </trkpt>
      <trkpt lat="44.41985" lon="1.11166">
        <ele>172</ele>
        <time>2021-06-01T17:50:35Z</time>
      </trkpt>
      <trkpt lat="44.42022" lon="1.11213">
        <ele>171</ele>
        <time>2021-06-01T17:51:15Z</time>
      </trkpt>
      <trkpt lat="44.42054" lon="1.11257">
        <ele>168</ele>
        <time>2021-06-01T17:51:51Z</time>
      </trkpt>
      <trkpt lat="44.42056" lon="1.11282">
        <ele>166</ele>
        <time>2021-06-01T17:52:05Z</time>
      </trkpt>
      <trkpt lat="44.42044" lon="1.11288">
        <ele>165</ele>
        <time>2021-06-01T17:52:16Z</time>
      </trkpt>
      <trkpt lat="44.42036" lon="1.113">
        <ele>164</ele>
        <time>2021-06-01T17:52:25Z</time>
      </trkpt>
      <trkpt lat="44.41991" lon="1.11307">
        <ele>163</ele>
        <time>2021-06-01T17:53:01Z</time>
      </trkpt>
      <trkpt lat="44.41933" lon="1.11366">
        <ele>161</ele>
        <time>2021-06-01T17:53:59Z</time>
      </trkpt>
      <trkpt lat="44.41914" lon="1.11385">
        <ele>160</ele>
        <time>2021-06-01T17:54:17Z</time>
      </trkpt>
      <trkpt lat="44.41778" lon="1.11537">
        <ele>159</ele>
        <time>2021-06-01T17:56:37Z</time>
      </trkpt>
      <trkpt lat="44.41576" lon="1.11674">
        <ele>166</ele>
        <time>2021-06-01T17:59:36Z</time>
      </trkpt>
      <trkpt lat="44.41714" lon="1.11863">
        <ele>161</ele>
        <time>2021-06-01T18:02:11Z</time>
      </trkpt>
      <trkpt lat="44.41706" lon="1.11944">
        <ele>165</ele>
        <time>2021-06-01T18:02:58Z</time>
      </trkpt>
      <trkpt lat="44.41654" lon="1.12034">
        <ele>161</ele>
        <time>2021-06-01T18:04:04Z</time>
      </trkpt>
      <trkpt lat="44.41576" lon="1.12154">
        <ele>164</ele>
        <time>2021-06-01T18:05:37Z</time>
      </trkpt>
      <trkpt lat="44.41533" lon="1.12216">
        <ele>167</ele>
        <time>2021-06-01T18:06:26Z</time>
      </trkpt>
      <trkpt lat="44.41534" lon="1.12343">
        <ele>175</ele>
        <time>2021-06-01T18:07:39Z</time>
      </trkpt>
      <trkpt lat="44.41534" lon="1.12381">
        <ele>176</ele>
        <time>2021-06-01T18:08:00Z</time>
      </trkpt>
      <trkpt lat="44.41384" lon="1.12514">
        <ele>185</ele>
        <time>2021-06-01T18:10:23Z</time>
      </trkpt>
      <trkpt lat="44.41351" lon="1.12491">
        <ele>187</ele>
        <time>2021-06-01T18:10:52Z</time>
      </trkpt>
      <trkpt lat="44.41331" lon="1.12517">
        <ele>189</ele>
        <time>2021-06-01T18:11:14Z</time>
      </trkpt>
      <trkpt lat="44.41331" lon="1.12617">
        <ele>190</ele>
        <time>2021-06-01T18:12:11Z</time>
      </trkpt>
      <trkpt lat="44.41274" lon="1.12707">
        <ele>191</ele>
        <time>2021-06-01T18:13:20Z</time>
      </trkpt>
      <trkpt lat="44.41136" lon="1.12763">
        <ele>194</ele>
        <time>2021-06-01T18:15:15Z</time>
      </trkpt>
      <trkpt lat="44.40986" lon="1.12773">
        <ele>206</ele>
        <time>2021-06-01T18:17:15Z</time>
      </trkpt>
      <trkpt lat="44.40917" lon="1.12828">
        <ele>211</ele>
        <time>2021-06-01T18:18:19Z</time>
      </trkpt>
      <trkpt lat="44.40863" lon="1.12935">
        <ele>225</ele>
        <time>2021-06-01T18:19:34Z</time>
      </trkpt>
      <trkpt lat="44.40791" lon="1.13042">
        <ele>230</ele>
        <time>2021-06-01T18:20:58Z</time>
      </trkpt>
      <trkpt lat="44.40707" lon="1.13057">
        <ele>238</ele>
        <time>2021-06-01T18:22:06Z</time>
      </trkpt>
      <trkpt lat="44.40648" lon="1.13047">
        <ele>245</ele>
        <time>2021-06-01T18:22:53Z</time>
      </trkpt>
      <trkpt lat="44.4058" lon="1.1313">
        <ele>251</ele>
        <time>2021-06-01T18:24:05Z</time>
      </trkpt>
      <trkpt lat="44.40457" lon="1.13177">
        <ele>255</ele>
        <time>2021-06-01T18:25:48Z</time>
      </trkpt>
      <trkpt lat="44.40526" lon="1.13201">
        <ele>255</ele>
        <time>2021-06-01T18:26:44Z</time>
      </trkpt>
      <trkpt lat="44.40593" lon="1.13229">
        <ele>259</ele>
        <time>2021-06-01T18:27:40Z</time>
      </trkpt>
      <trkpt lat="44.40636" lon="1.13202">
        <ele>256</ele>
        <time>2021-06-01T18:28:18Z</time>
      </trkpt>
      <trkpt lat="44.4067" lon="1.13214">
        <ele>257</ele>
        <time>2021-06-01T18:28:46Z</time>
      </trkpt>
      <trkpt lat="44.40687" lon="1.13261">
        <ele>260</ele>
        <time>2021-06-01T18:29:16Z</time>
      </trkpt>
      <trkpt lat="44.40773" lon="1.13293">
        <ele>257</ele>
        <time>2021-06-01T18:30:28Z</time>
      </trkpt>
      <trkpt lat="44.40857" lon="1.13235">
        <ele>255</ele>
        <time>2021-06-01T18:31:43Z</time>
      </trkpt>
      <trkpt lat="44.40944" lon="1.13246">
        <ele>256</ele>
        <time>2021-06-01T18:32:53Z</time>
      </trkpt>
      <trkpt lat="44.4115" lon="1.1318">
        <ele>242</ele>
        <time>2021-06-01T18:35:42Z</time>
      </trkpt>
      <trkpt lat="44.41308" lon="1.13124">
        <ele>240</ele>
        <time>2021-06-01T18:37:52Z</time>
      </trkpt>
      <trkpt lat="44.41458" lon="1.13079">
        <ele>234</ele>
        <time>2021-06-01T18:39:55Z</time>
      </trkpt>
      <trkpt lat="44.41387" lon="1.13167">
        <ele>230</ele>
        <time>2021-06-01T18:41:11Z</time>
      </trkpt>
      <trkpt lat="44.41308" lon="1.13212">
        <ele>227</ele>
        <time>2021-06-01T18:42:19Z</time>
      </trkpt>
      <trkpt lat="44.41236" lon="1.13212">
        <ele>230</ele>
        <time>2021-06-01T18:43:17Z</time>
      </trkpt>
      <trkpt lat="44.41234" lon="1.13276">
        <ele>215</ele>
        <time>2021-06-01T18:43:54Z</time>
      </trkpt>
      <trkpt lat="44.41157" lon="1.13291">
        <ele>217</ele>
        <time>2021-06-01T18:44:56Z</time>
      </trkpt>
      <trkpt lat="44.41042" lon="1.13459">
        <ele>196</ele>
        <time>2021-06-01T18:47:09Z</time>
      </trkpt>
      <trkpt lat="44.4094" lon="1.13574">
        <ele>188</ele>
        <time>2021-06-01T18:48:54Z</time>
      </trkpt>
      <trkpt lat="44.40938" lon="1.13632">
        <ele>188</ele>
        <time>2021-06-01T18:49:27Z</time>
      </trkpt>
      <trkpt lat="44.41102" lon="1.13602">
        <ele>185</ele>
        <time>2021-06-01T18:51:39Z</time>
      </trkpt>
      <trkpt lat="44.41171" lon="1.13611">
        <ele>187</ele>
        <time>2021-06-01T18:52:35Z</time>
      </trkpt>
      <trkpt lat="44.41216" lon="1.13621">
        <ele>189</ele>
        <time>2021-06-01T18:53:11Z</time>
      </trkpt>
      <trkpt lat="44.41252" lon="1.13654">
        <ele>195</ele>
        <time>2021-06-01T18:53:46Z</time>
      </trkpt>
      <trkpt lat="44.41309" lon="1.13697">
        <ele>195</ele>
        <time>2021-06-01T18:54:38Z</time>
      </trkpt>
      <trkpt lat="44.41384" lon="1.13772">
        <ele>188</ele>
        <time>2021-06-01T18:55:52Z</time>
      </trkpt>
      <trkpt lat="44.41432" lon="1.13883">
        <ele>181</ele>
        <time>2021-06-01T18:57:06Z</time>
      </trkpt>
      <trkpt lat="44.41534" lon="1.13954">
        <ele>171</ele>
        <time>2021-06-01T18:58:37Z</time>
      </trkpt>
      <trkpt lat="44.41616" lon="1.13963">
        <ele>166</ele>
        <time>2021-06-01T18:59:43Z</time>
      </trkpt>
      <trkpt lat="44.41761" lon="1.14207">
        <ele>156</ele>
        <time>2021-06-01T19:02:44Z</time>
      </trkpt>
      <trkpt lat="44.41849" lon="1.14383">
        <ele>149</ele>
        <time>2021-06-01T19:04:47Z</time>
      </trkpt>
      <trkpt lat="44.41867" lon="1.1442">
        <ele>149</ele>
        <time>2021-06-01T19:05:13Z</time>
      </trkpt>
      <trkpt lat="44.41922" lon="1.14463">
        <ele>150</ele>
        <time>2021-06-01T19:06:03Z</time>
      </trkpt>
      <trkpt lat="44.41934" lon="1.14433">
        <ele>150</ele>
        <time>2021-06-01T19:06:23Z</time>
      </trkpt>
    </trkseg>
  </trk>
</gpx>